<?xml version="1.0" encoding="UTF-8" standalone="no" ?>
<gpx xmlns="http://www.topografix.com/GPX/1/1" xmlns:xsi="http://www.w3.org/2001/XMLSchema-instance" xsi:schemaLocation="http://www.topografix.com/GPX/1/1 http://www.topografix.com/GPX/1/1/gpx.xsd" version="1.1" creator="VisuGPX - https://www.visugpx.com">
  <metadata>
    <name>Boucle des Martins</name>
    <desc><![CDATA[Randonnée autour des Martins au départ de Pazanan.]]></desc>
  </metadata>
  <trk>
    <name><![CDATA[22 févr. 2019]]></name>
    <cmt><![CDATA[1:59:28 PM]]></cmt>
    <desc><![CDATA[comment ...]]></desc>
    <trkseg>
      <trkpt lat="44.42199" lon="4.23089">
        <ele>205</ele>
        <time>2019-02-22T12:59:28Z</time>
      </trkpt>
      <trkpt lat="44.42202" lon="4.23084">
        <ele>207</ele>
        <time>2019-02-22T12:59:29Z</time>
      </trkpt>
      <trkpt lat="44.42215" lon="4.23087">
        <ele>203</ele>
        <time>2019-02-22T12:59:54Z</time>
      </trkpt>
      <trkpt lat="44.42222" lon="4.23084">
        <ele>203</ele>
        <time>2019-02-22T13:00:01Z</time>
      </trkpt>
      <trkpt lat="44.42224" lon="4.2308">
        <ele>205</ele>
        <time>2019-02-22T13:00:06Z</time>
      </trkpt>
      <trkpt lat="44.42227" lon="4.23082">
        <ele>205</ele>
        <time>2019-02-22T13:00:09Z</time>
      </trkpt>
      <trkpt lat="44.4223" lon="4.23081">
        <ele>204</ele>
        <time>2019-02-22T13:00:12Z</time>
      </trkpt>
      <trkpt lat="44.42237" lon="4.2308">
        <ele>202</ele>
        <time>2019-02-22T13:00:20Z</time>
      </trkpt>
      <trkpt lat="44.42243" lon="4.23077">
        <ele>200</ele>
        <time>2019-02-22T13:00:27Z</time>
      </trkpt>
      <trkpt lat="44.42248" lon="4.23074">
        <ele>200</ele>
        <time>2019-02-22T13:00:33Z</time>
      </trkpt>
      <trkpt lat="44.42265" lon="4.23061">
        <ele>199</ele>
        <time>2019-02-22T13:00:51Z</time>
      </trkpt>
      <trkpt lat="44.42267" lon="4.23059">
        <ele>200</ele>
        <time>2019-02-22T13:01:19Z</time>
      </trkpt>
      <trkpt lat="44.42267" lon="4.23054">
        <ele>200</ele>
        <time>2019-02-22T13:01:22Z</time>
      </trkpt>
      <trkpt lat="44.42263" lon="4.23041">
        <ele>201</ele>
        <time>2019-02-22T13:01:30Z</time>
      </trkpt>
      <trkpt lat="44.4226" lon="4.23023">
        <ele>201</ele>
        <time>2019-02-22T13:01:42Z</time>
      </trkpt>
      <trkpt lat="44.42259" lon="4.23019">
        <ele>201</ele>
        <time>2019-02-22T13:01:45Z</time>
      </trkpt>
      <trkpt lat="44.42246" lon="4.23003">
        <ele>202</ele>
        <time>2019-02-22T13:02:03Z</time>
      </trkpt>
      <trkpt lat="44.42218" lon="4.22985">
        <ele>204</ele>
        <time>2019-02-22T13:02:33Z</time>
      </trkpt>
      <trkpt lat="44.42212" lon="4.22981">
        <ele>205</ele>
        <time>2019-02-22T13:02:39Z</time>
      </trkpt>
      <trkpt lat="44.42201" lon="4.22968">
        <ele>205</ele>
        <time>2019-02-22T13:02:51Z</time>
      </trkpt>
      <trkpt lat="44.42199" lon="4.22965">
        <ele>205</ele>
        <time>2019-02-22T13:02:54Z</time>
      </trkpt>
      <trkpt lat="44.42187" lon="4.22947">
        <ele>206</ele>
        <time>2019-02-22T13:03:12Z</time>
      </trkpt>
      <trkpt lat="44.42164" lon="4.22911">
        <ele>206</ele>
        <time>2019-02-22T13:03:46Z</time>
      </trkpt>
      <trkpt lat="44.42162" lon="4.22908">
        <ele>206</ele>
        <time>2019-02-22T13:03:49Z</time>
      </trkpt>
      <trkpt lat="44.42161" lon="4.22904">
        <ele>206</ele>
        <time>2019-02-22T13:03:52Z</time>
      </trkpt>
      <trkpt lat="44.42159" lon="4.22901">
        <ele>206</ele>
        <time>2019-02-22T13:03:56Z</time>
      </trkpt>
      <trkpt lat="44.42156" lon="4.22899">
        <ele>206</ele>
        <time>2019-02-22T13:03:59Z</time>
      </trkpt>
      <trkpt lat="44.42154" lon="4.22896">
        <ele>206</ele>
        <time>2019-02-22T13:04:02Z</time>
      </trkpt>
      <trkpt lat="44.42152" lon="4.22894">
        <ele>206</ele>
        <time>2019-02-22T13:04:07Z</time>
      </trkpt>
      <trkpt lat="44.4215" lon="4.22891">
        <ele>206</ele>
        <time>2019-02-22T13:04:11Z</time>
      </trkpt>
      <trkpt lat="44.42148" lon="4.22887">
        <ele>206</ele>
        <time>2019-02-22T13:04:14Z</time>
      </trkpt>
      <trkpt lat="44.42121" lon="4.22854">
        <ele>206</ele>
        <time>2019-02-22T13:04:46Z</time>
      </trkpt>
      <trkpt lat="44.42119" lon="4.22851">
        <ele>206</ele>
        <time>2019-02-22T13:04:49Z</time>
      </trkpt>
      <trkpt lat="44.42113" lon="4.22845">
        <ele>206</ele>
        <time>2019-02-22T13:04:55Z</time>
      </trkpt>
      <trkpt lat="44.4211" lon="4.22843">
        <ele>206</ele>
        <time>2019-02-22T13:04:58Z</time>
      </trkpt>
      <trkpt lat="44.42107" lon="4.22845">
        <ele>206</ele>
        <time>2019-02-22T13:05:01Z</time>
      </trkpt>
      <trkpt lat="44.42105" lon="4.22847">
        <ele>206</ele>
        <time>2019-02-22T13:05:04Z</time>
      </trkpt>
      <trkpt lat="44.42103" lon="4.2285">
        <ele>206</ele>
        <time>2019-02-22T13:05:07Z</time>
      </trkpt>
      <trkpt lat="44.42101" lon="4.22852">
        <ele>207</ele>
        <time>2019-02-22T13:05:10Z</time>
      </trkpt>
      <trkpt lat="44.42094" lon="4.22855">
        <ele>208</ele>
        <time>2019-02-22T13:05:19Z</time>
      </trkpt>
      <trkpt lat="44.42091" lon="4.22855">
        <ele>209</ele>
        <time>2019-02-22T13:05:22Z</time>
      </trkpt>
      <trkpt lat="44.42089" lon="4.22857">
        <ele>209</ele>
        <time>2019-02-22T13:05:25Z</time>
      </trkpt>
      <trkpt lat="44.42086" lon="4.2286">
        <ele>209</ele>
        <time>2019-02-22T13:05:28Z</time>
      </trkpt>
      <trkpt lat="44.42071" lon="4.22869">
        <ele>211</ele>
        <time>2019-02-22T13:05:44Z</time>
      </trkpt>
      <trkpt lat="44.42068" lon="4.22871">
        <ele>210</ele>
        <time>2019-02-22T13:05:49Z</time>
      </trkpt>
      <trkpt lat="44.42051" lon="4.22882">
        <ele>210</ele>
        <time>2019-02-22T13:06:11Z</time>
      </trkpt>
      <trkpt lat="44.42047" lon="4.22888">
        <ele>209</ele>
        <time>2019-02-22T13:06:46Z</time>
      </trkpt>
      <trkpt lat="44.42042" lon="4.22893">
        <ele>209</ele>
        <time>2019-02-22T13:06:53Z</time>
      </trkpt>
      <trkpt lat="44.4203" lon="4.229">
        <ele>210</ele>
        <time>2019-02-22T13:07:07Z</time>
      </trkpt>
      <trkpt lat="44.42033" lon="4.22899">
        <ele>210</ele>
        <time>2019-02-22T13:07:49Z</time>
      </trkpt>
      <trkpt lat="44.42033" lon="4.22894">
        <ele>210</ele>
        <time>2019-02-22T13:08:14Z</time>
      </trkpt>
      <trkpt lat="44.42031" lon="4.22891">
        <ele>209</ele>
        <time>2019-02-22T13:08:17Z</time>
      </trkpt>
      <trkpt lat="44.42029" lon="4.22888">
        <ele>209</ele>
        <time>2019-02-22T13:08:49Z</time>
      </trkpt>
      <trkpt lat="44.42029" lon="4.22888">
        <ele>209</ele>
        <time>2019-02-22T13:09:51Z</time>
      </trkpt>
      <trkpt lat="44.42029" lon="4.22892">
        <ele>210</ele>
        <time>2019-02-22T13:09:54Z</time>
      </trkpt>
      <trkpt lat="44.42031" lon="4.22897">
        <ele>209</ele>
        <time>2019-02-22T13:09:57Z</time>
      </trkpt>
      <trkpt lat="44.42033" lon="4.22899">
        <ele>208</ele>
        <time>2019-02-22T13:10:00Z</time>
      </trkpt>
      <trkpt lat="44.42048" lon="4.22893">
        <ele>207</ele>
        <time>2019-02-22T13:10:19Z</time>
      </trkpt>
      <trkpt lat="44.42051" lon="4.22889">
        <ele>207</ele>
        <time>2019-02-22T13:10:24Z</time>
      </trkpt>
      <trkpt lat="44.42053" lon="4.22885">
        <ele>207</ele>
        <time>2019-02-22T13:10:28Z</time>
      </trkpt>
      <trkpt lat="44.42052" lon="4.22881">
        <ele>207</ele>
        <time>2019-02-22T13:10:32Z</time>
      </trkpt>
      <trkpt lat="44.42057" lon="4.22875">
        <ele>207</ele>
        <time>2019-02-22T13:10:39Z</time>
      </trkpt>
      <trkpt lat="44.42063" lon="4.22873">
        <ele>206</ele>
        <time>2019-02-22T13:10:46Z</time>
      </trkpt>
      <trkpt lat="44.42065" lon="4.22871">
        <ele>206</ele>
        <time>2019-02-22T13:10:51Z</time>
      </trkpt>
      <trkpt lat="44.42071" lon="4.22868">
        <ele>208</ele>
        <time>2019-02-22T13:11:00Z</time>
      </trkpt>
      <trkpt lat="44.42077" lon="4.22866">
        <ele>209</ele>
        <time>2019-02-22T13:11:06Z</time>
      </trkpt>
      <trkpt lat="44.4208" lon="4.22864">
        <ele>210</ele>
        <time>2019-02-22T13:11:10Z</time>
      </trkpt>
      <trkpt lat="44.42082" lon="4.2286">
        <ele>209</ele>
        <time>2019-02-22T13:11:15Z</time>
      </trkpt>
      <trkpt lat="44.42091" lon="4.22857">
        <ele>210</ele>
        <time>2019-02-22T13:11:28Z</time>
      </trkpt>
      <trkpt lat="44.42097" lon="4.22857">
        <ele>211</ele>
        <time>2019-02-22T13:11:36Z</time>
      </trkpt>
      <trkpt lat="44.42101" lon="4.22857">
        <ele>211</ele>
        <time>2019-02-22T13:11:40Z</time>
      </trkpt>
      <trkpt lat="44.42106" lon="4.2285">
        <ele>211</ele>
        <time>2019-02-22T13:11:50Z</time>
      </trkpt>
      <trkpt lat="44.42111" lon="4.22844">
        <ele>211</ele>
        <time>2019-02-22T13:11:58Z</time>
      </trkpt>
      <trkpt lat="44.42114" lon="4.22843">
        <ele>211</ele>
        <time>2019-02-22T13:12:01Z</time>
      </trkpt>
      <trkpt lat="44.42117" lon="4.22845">
        <ele>211</ele>
        <time>2019-02-22T13:12:05Z</time>
      </trkpt>
      <trkpt lat="44.42136" lon="4.22873">
        <ele>210</ele>
        <time>2019-02-22T13:12:35Z</time>
      </trkpt>
      <trkpt lat="44.42139" lon="4.22876">
        <ele>210</ele>
        <time>2019-02-22T13:12:39Z</time>
      </trkpt>
      <trkpt lat="44.42144" lon="4.22883">
        <ele>209</ele>
        <time>2019-02-22T13:12:45Z</time>
      </trkpt>
      <trkpt lat="44.42146" lon="4.22886">
        <ele>209</ele>
        <time>2019-02-22T13:12:48Z</time>
      </trkpt>
      <trkpt lat="44.42152" lon="4.22895">
        <ele>209</ele>
        <time>2019-02-22T13:12:57Z</time>
      </trkpt>
      <trkpt lat="44.42157" lon="4.22902">
        <ele>209</ele>
        <time>2019-02-22T13:13:03Z</time>
      </trkpt>
      <trkpt lat="44.42159" lon="4.22905">
        <ele>209</ele>
        <time>2019-02-22T13:13:06Z</time>
      </trkpt>
      <trkpt lat="44.42161" lon="4.22908">
        <ele>208</ele>
        <time>2019-02-22T13:13:09Z</time>
      </trkpt>
      <trkpt lat="44.42163" lon="4.22912">
        <ele>208</ele>
        <time>2019-02-22T13:13:12Z</time>
      </trkpt>
      <trkpt lat="44.42163" lon="4.22916">
        <ele>208</ele>
        <time>2019-02-22T13:13:16Z</time>
      </trkpt>
      <trkpt lat="44.42158" lon="4.22923">
        <ele>208</ele>
        <time>2019-02-22T13:13:23Z</time>
      </trkpt>
      <trkpt lat="44.42154" lon="4.2293">
        <ele>208</ele>
        <time>2019-02-22T13:13:30Z</time>
      </trkpt>
      <trkpt lat="44.42149" lon="4.22935">
        <ele>207</ele>
        <time>2019-02-22T13:13:36Z</time>
      </trkpt>
      <trkpt lat="44.42146" lon="4.22937">
        <ele>206</ele>
        <time>2019-02-22T13:13:39Z</time>
      </trkpt>
      <trkpt lat="44.42143" lon="4.22937">
        <ele>206</ele>
        <time>2019-02-22T13:13:43Z</time>
      </trkpt>
      <trkpt lat="44.4214" lon="4.22935">
        <ele>207</ele>
        <time>2019-02-22T13:13:47Z</time>
      </trkpt>
      <trkpt lat="44.42134" lon="4.22934">
        <ele>207</ele>
        <time>2019-02-22T13:13:53Z</time>
      </trkpt>
      <trkpt lat="44.42131" lon="4.22934">
        <ele>207</ele>
        <time>2019-02-22T13:13:57Z</time>
      </trkpt>
      <trkpt lat="44.42133" lon="4.22936">
        <ele>207</ele>
        <time>2019-02-22T13:15:17Z</time>
      </trkpt>
      <trkpt lat="44.42136" lon="4.22937">
        <ele>206</ele>
        <time>2019-02-22T13:15:20Z</time>
      </trkpt>
      <trkpt lat="44.42146" lon="4.22937">
        <ele>205</ele>
        <time>2019-02-22T13:15:31Z</time>
      </trkpt>
      <trkpt lat="44.42152" lon="4.22935">
        <ele>206</ele>
        <time>2019-02-22T13:15:39Z</time>
      </trkpt>
      <trkpt lat="44.42155" lon="4.22931">
        <ele>206</ele>
        <time>2019-02-22T13:15:43Z</time>
      </trkpt>
      <trkpt lat="44.42162" lon="4.22923">
        <ele>205</ele>
        <time>2019-02-22T13:15:53Z</time>
      </trkpt>
      <trkpt lat="44.42168" lon="4.2292">
        <ele>205</ele>
        <time>2019-02-22T13:16:01Z</time>
      </trkpt>
      <trkpt lat="44.42171" lon="4.22919">
        <ele>205</ele>
        <time>2019-02-22T13:16:06Z</time>
      </trkpt>
      <trkpt lat="44.4218" lon="4.22932">
        <ele>206</ele>
        <time>2019-02-22T13:16:36Z</time>
      </trkpt>
      <trkpt lat="44.42201" lon="4.22967">
        <ele>207</ele>
        <time>2019-02-22T13:17:06Z</time>
      </trkpt>
      <trkpt lat="44.42213" lon="4.22982">
        <ele>207</ele>
        <time>2019-02-22T13:17:21Z</time>
      </trkpt>
      <trkpt lat="44.42224" lon="4.22992">
        <ele>206</ele>
        <time>2019-02-22T13:17:33Z</time>
      </trkpt>
      <trkpt lat="44.42227" lon="4.22994">
        <ele>206</ele>
        <time>2019-02-22T13:17:36Z</time>
      </trkpt>
      <trkpt lat="44.42242" lon="4.23003">
        <ele>207</ele>
        <time>2019-02-22T13:17:51Z</time>
      </trkpt>
      <trkpt lat="44.42245" lon="4.23004">
        <ele>207</ele>
        <time>2019-02-22T13:17:54Z</time>
      </trkpt>
      <trkpt lat="44.42248" lon="4.23006">
        <ele>207</ele>
        <time>2019-02-22T13:17:57Z</time>
      </trkpt>
      <trkpt lat="44.42256" lon="4.23015">
        <ele>206</ele>
        <time>2019-02-22T13:18:07Z</time>
      </trkpt>
      <trkpt lat="44.42272" lon="4.23036">
        <ele>204</ele>
        <time>2019-02-22T13:18:44Z</time>
      </trkpt>
      <trkpt lat="44.42277" lon="4.23048">
        <ele>204</ele>
        <time>2019-02-22T13:19:04Z</time>
      </trkpt>
      <trkpt lat="44.42278" lon="4.23052">
        <ele>204</ele>
        <time>2019-02-22T13:19:08Z</time>
      </trkpt>
      <trkpt lat="44.4228" lon="4.23056">
        <ele>204</ele>
        <time>2019-02-22T13:19:12Z</time>
      </trkpt>
      <trkpt lat="44.42282" lon="4.23058">
        <ele>204</ele>
        <time>2019-02-22T13:19:18Z</time>
      </trkpt>
      <trkpt lat="44.42293" lon="4.23048">
        <ele>202</ele>
        <time>2019-02-22T13:19:32Z</time>
      </trkpt>
      <trkpt lat="44.42298" lon="4.23044">
        <ele>201</ele>
        <time>2019-02-22T13:19:39Z</time>
      </trkpt>
      <trkpt lat="44.42315" lon="4.23032">
        <ele>199</ele>
        <time>2019-02-22T13:20:04Z</time>
      </trkpt>
      <trkpt lat="44.42321" lon="4.23028">
        <ele>199</ele>
        <time>2019-02-22T13:20:12Z</time>
      </trkpt>
      <trkpt lat="44.42323" lon="4.23026">
        <ele>199</ele>
        <time>2019-02-22T13:20:16Z</time>
      </trkpt>
      <trkpt lat="44.42326" lon="4.23025">
        <ele>199</ele>
        <time>2019-02-22T13:20:20Z</time>
      </trkpt>
      <trkpt lat="44.4233" lon="4.23025">
        <ele>198</ele>
        <time>2019-02-22T13:20:25Z</time>
      </trkpt>
      <trkpt lat="44.42332" lon="4.23023">
        <ele>198</ele>
        <time>2019-02-22T13:20:29Z</time>
      </trkpt>
      <trkpt lat="44.42334" lon="4.2302">
        <ele>199</ele>
        <time>2019-02-22T13:20:32Z</time>
      </trkpt>
      <trkpt lat="44.42342" lon="4.23016">
        <ele>199</ele>
        <time>2019-02-22T13:20:43Z</time>
      </trkpt>
      <trkpt lat="44.42344" lon="4.23014">
        <ele>200</ele>
        <time>2019-02-22T13:20:47Z</time>
      </trkpt>
      <trkpt lat="44.42347" lon="4.23013">
        <ele>200</ele>
        <time>2019-02-22T13:20:53Z</time>
      </trkpt>
      <trkpt lat="44.42351" lon="4.23012">
        <ele>200</ele>
        <time>2019-02-22T13:20:58Z</time>
      </trkpt>
      <trkpt lat="44.42353" lon="4.2301">
        <ele>200</ele>
        <time>2019-02-22T13:21:02Z</time>
      </trkpt>
      <trkpt lat="44.42356" lon="4.23009">
        <ele>200</ele>
        <time>2019-02-22T13:21:07Z</time>
      </trkpt>
      <trkpt lat="44.42359" lon="4.23007">
        <ele>200</ele>
        <time>2019-02-22T13:21:11Z</time>
      </trkpt>
      <trkpt lat="44.42364" lon="4.23002">
        <ele>199</ele>
        <time>2019-02-22T13:21:20Z</time>
      </trkpt>
      <trkpt lat="44.42373" lon="4.22998">
        <ele>200</ele>
        <time>2019-02-22T13:21:32Z</time>
      </trkpt>
      <trkpt lat="44.42376" lon="4.22997">
        <ele>201</ele>
        <time>2019-02-22T13:21:37Z</time>
      </trkpt>
      <trkpt lat="44.42382" lon="4.22994">
        <ele>201</ele>
        <time>2019-02-22T13:21:45Z</time>
      </trkpt>
      <trkpt lat="44.42384" lon="4.22992">
        <ele>201</ele>
        <time>2019-02-22T13:21:50Z</time>
      </trkpt>
      <trkpt lat="44.42386" lon="4.22989">
        <ele>201</ele>
        <time>2019-02-22T13:21:55Z</time>
      </trkpt>
      <trkpt lat="44.42409" lon="4.22975">
        <ele>200</ele>
        <time>2019-02-22T13:22:27Z</time>
      </trkpt>
      <trkpt lat="44.42433" lon="4.22963">
        <ele>203</ele>
        <time>2019-02-22T13:22:53Z</time>
      </trkpt>
      <trkpt lat="44.42439" lon="4.22962">
        <ele>203</ele>
        <time>2019-02-22T13:23:01Z</time>
      </trkpt>
      <trkpt lat="44.42449" lon="4.22973">
        <ele>200</ele>
        <time>2019-02-22T13:23:17Z</time>
      </trkpt>
      <trkpt lat="44.42456" lon="4.22982">
        <ele>199</ele>
        <time>2019-02-22T13:23:26Z</time>
      </trkpt>
      <trkpt lat="44.42457" lon="4.22985">
        <ele>199</ele>
        <time>2019-02-22T13:23:29Z</time>
      </trkpt>
      <trkpt lat="44.42471" lon="4.23003">
        <ele>198</ele>
        <time>2019-02-22T13:23:47Z</time>
      </trkpt>
      <trkpt lat="44.42492" lon="4.23022">
        <ele>200</ele>
        <time>2019-02-22T13:24:16Z</time>
      </trkpt>
      <trkpt lat="44.42508" lon="4.23019">
        <ele>201</ele>
        <time>2019-02-22T13:24:31Z</time>
      </trkpt>
      <trkpt lat="44.42511" lon="4.23019">
        <ele>202</ele>
        <time>2019-02-22T13:24:35Z</time>
      </trkpt>
      <trkpt lat="44.42514" lon="4.23021">
        <ele>202</ele>
        <time>2019-02-22T13:24:38Z</time>
      </trkpt>
      <trkpt lat="44.42517" lon="4.23023">
        <ele>203</ele>
        <time>2019-02-22T13:24:42Z</time>
      </trkpt>
      <trkpt lat="44.42522" lon="4.23027">
        <ele>202</ele>
        <time>2019-02-22T13:24:49Z</time>
      </trkpt>
      <trkpt lat="44.42528" lon="4.23031">
        <ele>203</ele>
        <time>2019-02-22T13:24:58Z</time>
      </trkpt>
      <trkpt lat="44.42532" lon="4.23039">
        <ele>203</ele>
        <time>2019-02-22T13:25:17Z</time>
      </trkpt>
      <trkpt lat="44.42534" lon="4.23041">
        <ele>204</ele>
        <time>2019-02-22T13:25:21Z</time>
      </trkpt>
      <trkpt lat="44.42543" lon="4.23059">
        <ele>203</ele>
        <time>2019-02-22T13:25:40Z</time>
      </trkpt>
      <trkpt lat="44.42545" lon="4.23062">
        <ele>203</ele>
        <time>2019-02-22T13:25:43Z</time>
      </trkpt>
      <trkpt lat="44.42549" lon="4.2307">
        <ele>202</ele>
        <time>2019-02-22T13:25:50Z</time>
      </trkpt>
      <trkpt lat="44.42557" lon="4.23084">
        <ele>202</ele>
        <time>2019-02-22T13:26:04Z</time>
      </trkpt>
      <trkpt lat="44.42557" lon="4.23088">
        <ele>201</ele>
        <time>2019-02-22T13:26:08Z</time>
      </trkpt>
      <trkpt lat="44.42566" lon="4.23107">
        <ele>200</ele>
        <time>2019-02-22T13:26:26Z</time>
      </trkpt>
      <trkpt lat="44.42569" lon="4.23109">
        <ele>200</ele>
        <time>2019-02-22T13:26:29Z</time>
      </trkpt>
      <trkpt lat="44.42572" lon="4.23109">
        <ele>200</ele>
        <time>2019-02-22T13:26:32Z</time>
      </trkpt>
      <trkpt lat="44.42586" lon="4.23096">
        <ele>198</ele>
        <time>2019-02-22T13:26:47Z</time>
      </trkpt>
      <trkpt lat="44.42588" lon="4.23098">
        <ele>198</ele>
        <time>2019-02-22T13:27:55Z</time>
      </trkpt>
      <trkpt lat="44.42573" lon="4.23116">
        <ele>199</ele>
        <time>2019-02-22T13:28:13Z</time>
      </trkpt>
      <trkpt lat="44.42567" lon="4.23126">
        <ele>199</ele>
        <time>2019-02-22T13:28:22Z</time>
      </trkpt>
      <trkpt lat="44.42564" lon="4.23134">
        <ele>200</ele>
        <time>2019-02-22T13:28:30Z</time>
      </trkpt>
      <trkpt lat="44.4256" lon="4.23142">
        <ele>200</ele>
        <time>2019-02-22T13:28:37Z</time>
      </trkpt>
      <trkpt lat="44.42559" lon="4.23146">
        <ele>200</ele>
        <time>2019-02-22T13:28:41Z</time>
      </trkpt>
      <trkpt lat="44.42558" lon="4.2315">
        <ele>200</ele>
        <time>2019-02-22T13:28:44Z</time>
      </trkpt>
      <trkpt lat="44.42556" lon="4.23154">
        <ele>200</ele>
        <time>2019-02-22T13:28:47Z</time>
      </trkpt>
      <trkpt lat="44.42552" lon="4.23167">
        <ele>201</ele>
        <time>2019-02-22T13:28:57Z</time>
      </trkpt>
      <trkpt lat="44.42545" lon="4.2318">
        <ele>201</ele>
        <time>2019-02-22T13:29:10Z</time>
      </trkpt>
      <trkpt lat="44.42528" lon="4.23202">
        <ele>200</ele>
        <time>2019-02-22T13:29:42Z</time>
      </trkpt>
      <trkpt lat="44.42507" lon="4.23233">
        <ele>200</ele>
        <time>2019-02-22T13:30:14Z</time>
      </trkpt>
      <trkpt lat="44.42503" lon="4.23238">
        <ele>200</ele>
        <time>2019-02-22T13:30:20Z</time>
      </trkpt>
      <trkpt lat="44.42501" lon="4.23241">
        <ele>200</ele>
        <time>2019-02-22T13:30:23Z</time>
      </trkpt>
      <trkpt lat="44.42481" lon="4.23271">
        <ele>199</ele>
        <time>2019-02-22T13:30:50Z</time>
      </trkpt>
      <trkpt lat="44.42471" lon="4.23293">
        <ele>200</ele>
        <time>2019-02-22T13:31:08Z</time>
      </trkpt>
      <trkpt lat="44.42471" lon="4.23299">
        <ele>200</ele>
        <time>2019-02-22T13:31:12Z</time>
      </trkpt>
      <trkpt lat="44.42473" lon="4.23306">
        <ele>201</ele>
        <time>2019-02-22T13:31:18Z</time>
      </trkpt>
      <trkpt lat="44.42475" lon="4.23308">
        <ele>200</ele>
        <time>2019-02-22T13:31:21Z</time>
      </trkpt>
      <trkpt lat="44.42478" lon="4.23312">
        <ele>200</ele>
        <time>2019-02-22T13:31:25Z</time>
      </trkpt>
      <trkpt lat="44.42491" lon="4.23325">
        <ele>201</ele>
        <time>2019-02-22T13:31:41Z</time>
      </trkpt>
      <trkpt lat="44.42501" lon="4.23343">
        <ele>201</ele>
        <time>2019-02-22T13:31:58Z</time>
      </trkpt>
      <trkpt lat="44.42507" lon="4.23348">
        <ele>201</ele>
        <time>2019-02-22T13:32:04Z</time>
      </trkpt>
      <trkpt lat="44.42509" lon="4.2335">
        <ele>201</ele>
        <time>2019-02-22T13:32:07Z</time>
      </trkpt>
      <trkpt lat="44.42514" lon="4.23355">
        <ele>202</ele>
        <time>2019-02-22T13:32:13Z</time>
      </trkpt>
      <trkpt lat="44.42516" lon="4.23357">
        <ele>202</ele>
        <time>2019-02-22T13:32:16Z</time>
      </trkpt>
      <trkpt lat="44.42519" lon="4.2336">
        <ele>201</ele>
        <time>2019-02-22T13:32:20Z</time>
      </trkpt>
      <trkpt lat="44.42539" lon="4.23384">
        <ele>200</ele>
        <time>2019-02-22T13:32:47Z</time>
      </trkpt>
      <trkpt lat="44.42546" lon="4.23394">
        <ele>200</ele>
        <time>2019-02-22T13:32:57Z</time>
      </trkpt>
      <trkpt lat="44.42548" lon="4.23398">
        <ele>200</ele>
        <time>2019-02-22T13:33:01Z</time>
      </trkpt>
      <trkpt lat="44.42553" lon="4.23409">
        <ele>199</ele>
        <time>2019-02-22T13:33:11Z</time>
      </trkpt>
      <trkpt lat="44.42573" lon="4.23437">
        <ele>199</ele>
        <time>2019-02-22T13:33:40Z</time>
      </trkpt>
      <trkpt lat="44.42578" lon="4.23442">
        <ele>199</ele>
        <time>2019-02-22T13:33:46Z</time>
      </trkpt>
      <trkpt lat="44.42585" lon="4.2345">
        <ele>199</ele>
        <time>2019-02-22T13:33:56Z</time>
      </trkpt>
      <trkpt lat="44.42589" lon="4.23456">
        <ele>199</ele>
        <time>2019-02-22T13:34:02Z</time>
      </trkpt>
      <trkpt lat="44.42592" lon="4.23459">
        <ele>199</ele>
        <time>2019-02-22T13:34:05Z</time>
      </trkpt>
      <trkpt lat="44.42597" lon="4.23464">
        <ele>199</ele>
        <time>2019-02-22T13:34:11Z</time>
      </trkpt>
      <trkpt lat="44.42599" lon="4.23466">
        <ele>199</ele>
        <time>2019-02-22T13:34:14Z</time>
      </trkpt>
      <trkpt lat="44.42624" lon="4.23489">
        <ele>197</ele>
        <time>2019-02-22T13:34:46Z</time>
      </trkpt>
      <trkpt lat="44.42627" lon="4.2349">
        <ele>197</ele>
        <time>2019-02-22T13:34:50Z</time>
      </trkpt>
      <trkpt lat="44.4263" lon="4.23494">
        <ele>198</ele>
        <time>2019-02-22T13:34:54Z</time>
      </trkpt>
      <trkpt lat="44.42645" lon="4.23507">
        <ele>198</ele>
        <time>2019-02-22T13:35:13Z</time>
      </trkpt>
      <trkpt lat="44.42649" lon="4.23514">
        <ele>198</ele>
        <time>2019-02-22T13:35:20Z</time>
      </trkpt>
      <trkpt lat="44.42655" lon="4.23518">
        <ele>198</ele>
        <time>2019-02-22T13:35:27Z</time>
      </trkpt>
      <trkpt lat="44.42661" lon="4.23521">
        <ele>198</ele>
        <time>2019-02-22T13:35:33Z</time>
      </trkpt>
      <trkpt lat="44.42664" lon="4.23522">
        <ele>198</ele>
        <time>2019-02-22T13:35:36Z</time>
      </trkpt>
      <trkpt lat="44.42667" lon="4.23525">
        <ele>198</ele>
        <time>2019-02-22T13:35:40Z</time>
      </trkpt>
      <trkpt lat="44.42673" lon="4.23528">
        <ele>198</ele>
        <time>2019-02-22T13:35:47Z</time>
      </trkpt>
      <trkpt lat="44.42676" lon="4.23528">
        <ele>198</ele>
        <time>2019-02-22T13:35:51Z</time>
      </trkpt>
      <trkpt lat="44.42688" lon="4.23535">
        <ele>198</ele>
        <time>2019-02-22T13:36:04Z</time>
      </trkpt>
      <trkpt lat="44.427" lon="4.23542">
        <ele>197</ele>
        <time>2019-02-22T13:36:17Z</time>
      </trkpt>
      <trkpt lat="44.42703" lon="4.23543">
        <ele>197</ele>
        <time>2019-02-22T13:36:21Z</time>
      </trkpt>
      <trkpt lat="44.42706" lon="4.23545">
        <ele>196</ele>
        <time>2019-02-22T13:36:25Z</time>
      </trkpt>
      <trkpt lat="44.42709" lon="4.23547">
        <ele>196</ele>
        <time>2019-02-22T13:36:29Z</time>
      </trkpt>
      <trkpt lat="44.42715" lon="4.2355">
        <ele>196</ele>
        <time>2019-02-22T13:36:36Z</time>
      </trkpt>
      <trkpt lat="44.42717" lon="4.23552">
        <ele>196</ele>
        <time>2019-02-22T13:36:39Z</time>
      </trkpt>
      <trkpt lat="44.4272" lon="4.23555">
        <ele>196</ele>
        <time>2019-02-22T13:36:42Z</time>
      </trkpt>
      <trkpt lat="44.42726" lon="4.23557">
        <ele>195</ele>
        <time>2019-02-22T13:36:49Z</time>
      </trkpt>
      <trkpt lat="44.42732" lon="4.23567">
        <ele>195</ele>
        <time>2019-02-22T13:37:00Z</time>
      </trkpt>
      <trkpt lat="44.42734" lon="4.2357">
        <ele>196</ele>
        <time>2019-02-22T13:37:03Z</time>
      </trkpt>
      <trkpt lat="44.4274" lon="4.23574">
        <ele>196</ele>
        <time>2019-02-22T13:37:10Z</time>
      </trkpt>
      <trkpt lat="44.42756" lon="4.23591">
        <ele>195</ele>
        <time>2019-02-22T13:37:33Z</time>
      </trkpt>
      <trkpt lat="44.42759" lon="4.23599">
        <ele>195</ele>
        <time>2019-02-22T13:37:39Z</time>
      </trkpt>
      <trkpt lat="44.42762" lon="4.23602">
        <ele>196</ele>
        <time>2019-02-22T13:37:43Z</time>
      </trkpt>
      <trkpt lat="44.42767" lon="4.23606">
        <ele>196</ele>
        <time>2019-02-22T13:37:49Z</time>
      </trkpt>
      <trkpt lat="44.42771" lon="4.23607">
        <ele>196</ele>
        <time>2019-02-22T13:37:53Z</time>
      </trkpt>
      <trkpt lat="44.4279" lon="4.23622">
        <ele>196</ele>
        <time>2019-02-22T13:38:19Z</time>
      </trkpt>
      <trkpt lat="44.42795" lon="4.23627">
        <ele>195</ele>
        <time>2019-02-22T13:38:26Z</time>
      </trkpt>
      <trkpt lat="44.42802" lon="4.23637">
        <ele>195</ele>
        <time>2019-02-22T13:38:36Z</time>
      </trkpt>
      <trkpt lat="44.42805" lon="4.23645">
        <ele>194</ele>
        <time>2019-02-22T13:38:44Z</time>
      </trkpt>
      <trkpt lat="44.42812" lon="4.23654">
        <ele>194</ele>
        <time>2019-02-22T13:38:55Z</time>
      </trkpt>
      <trkpt lat="44.42814" lon="4.23662">
        <ele>193</ele>
        <time>2019-02-22T13:39:01Z</time>
      </trkpt>
      <trkpt lat="44.42815" lon="4.23666">
        <ele>193</ele>
        <time>2019-02-22T13:39:04Z</time>
      </trkpt>
      <trkpt lat="44.42821" lon="4.23671">
        <ele>191</ele>
        <time>2019-02-22T13:39:12Z</time>
      </trkpt>
      <trkpt lat="44.42826" lon="4.23678">
        <ele>190</ele>
        <time>2019-02-22T13:39:19Z</time>
      </trkpt>
      <trkpt lat="44.42832" lon="4.23686">
        <ele>189</ele>
        <time>2019-02-22T13:39:28Z</time>
      </trkpt>
      <trkpt lat="44.42838" lon="4.23696">
        <ele>188</ele>
        <time>2019-02-22T13:39:38Z</time>
      </trkpt>
      <trkpt lat="44.42841" lon="4.23699">
        <ele>188</ele>
        <time>2019-02-22T13:39:42Z</time>
      </trkpt>
      <trkpt lat="44.42843" lon="4.23702">
        <ele>188</ele>
        <time>2019-02-22T13:39:46Z</time>
      </trkpt>
      <trkpt lat="44.42851" lon="4.23709">
        <ele>188</ele>
        <time>2019-02-22T13:39:56Z</time>
      </trkpt>
      <trkpt lat="44.42853" lon="4.23712">
        <ele>188</ele>
        <time>2019-02-22T13:39:59Z</time>
      </trkpt>
      <trkpt lat="44.42859" lon="4.23717">
        <ele>188</ele>
        <time>2019-02-22T13:40:05Z</time>
      </trkpt>
      <trkpt lat="44.42866" lon="4.23729">
        <ele>188</ele>
        <time>2019-02-22T13:40:17Z</time>
      </trkpt>
      <trkpt lat="44.42875" lon="4.23742">
        <ele>188</ele>
        <time>2019-02-22T13:40:29Z</time>
      </trkpt>
      <trkpt lat="44.42879" lon="4.23755">
        <ele>189</ele>
        <time>2019-02-22T13:40:40Z</time>
      </trkpt>
      <trkpt lat="44.42886" lon="4.23769">
        <ele>190</ele>
        <time>2019-02-22T13:40:53Z</time>
      </trkpt>
      <trkpt lat="44.42888" lon="4.23772">
        <ele>190</ele>
        <time>2019-02-22T13:40:56Z</time>
      </trkpt>
      <trkpt lat="44.42889" lon="4.23777">
        <ele>190</ele>
        <time>2019-02-22T13:41:00Z</time>
      </trkpt>
      <trkpt lat="44.42893" lon="4.23787">
        <ele>191</ele>
        <time>2019-02-22T13:41:10Z</time>
      </trkpt>
      <trkpt lat="44.42897" lon="4.23795">
        <ele>191</ele>
        <time>2019-02-22T13:41:17Z</time>
      </trkpt>
      <trkpt lat="44.42906" lon="4.23824">
        <ele>191</ele>
        <time>2019-02-22T13:41:40Z</time>
      </trkpt>
      <trkpt lat="44.42907" lon="4.2383">
        <ele>191</ele>
        <time>2019-02-22T13:41:45Z</time>
      </trkpt>
      <trkpt lat="44.42908" lon="4.23835">
        <ele>191</ele>
        <time>2019-02-22T13:41:49Z</time>
      </trkpt>
      <trkpt lat="44.42913" lon="4.23851">
        <ele>191</ele>
        <time>2019-02-22T13:42:03Z</time>
      </trkpt>
      <trkpt lat="44.42914" lon="4.23855">
        <ele>191</ele>
        <time>2019-02-22T13:42:07Z</time>
      </trkpt>
      <trkpt lat="44.42915" lon="4.23859">
        <ele>191</ele>
        <time>2019-02-22T13:42:11Z</time>
      </trkpt>
      <trkpt lat="44.42915" lon="4.23864">
        <ele>187</ele>
        <time>2019-02-22T13:45:58Z</time>
      </trkpt>
      <trkpt lat="44.42913" lon="4.23867">
        <ele>186</ele>
        <time>2019-02-22T13:46:02Z</time>
      </trkpt>
      <trkpt lat="44.42913" lon="4.23872">
        <ele>185</ele>
        <time>2019-02-22T13:46:19Z</time>
      </trkpt>
      <trkpt lat="44.42911" lon="4.23876">
        <ele>185</ele>
        <time>2019-02-22T13:46:23Z</time>
      </trkpt>
      <trkpt lat="44.42888" lon="4.23886">
        <ele>184</ele>
        <time>2019-02-22T13:46:53Z</time>
      </trkpt>
      <trkpt lat="44.42882" lon="4.2389">
        <ele>183</ele>
        <time>2019-02-22T13:46:59Z</time>
      </trkpt>
      <trkpt lat="44.42872" lon="4.23901">
        <ele>184</ele>
        <time>2019-02-22T13:47:12Z</time>
      </trkpt>
      <trkpt lat="44.42855" lon="4.23928">
        <ele>185</ele>
        <time>2019-02-22T13:47:39Z</time>
      </trkpt>
      <trkpt lat="44.42847" lon="4.23941">
        <ele>186</ele>
        <time>2019-02-22T13:47:51Z</time>
      </trkpt>
      <trkpt lat="44.42841" lon="4.23952">
        <ele>185</ele>
        <time>2019-02-22T13:48:01Z</time>
      </trkpt>
      <trkpt lat="44.42837" lon="4.23957">
        <ele>184</ele>
        <time>2019-02-22T13:48:08Z</time>
      </trkpt>
      <trkpt lat="44.42829" lon="4.2397">
        <ele>186</ele>
        <time>2019-02-22T13:48:21Z</time>
      </trkpt>
      <trkpt lat="44.42827" lon="4.23973">
        <ele>186</ele>
        <time>2019-02-22T13:48:25Z</time>
      </trkpt>
      <trkpt lat="44.42824" lon="4.23976">
        <ele>186</ele>
        <time>2019-02-22T13:48:29Z</time>
      </trkpt>
      <trkpt lat="44.42822" lon="4.2398">
        <ele>186</ele>
        <time>2019-02-22T13:48:33Z</time>
      </trkpt>
      <trkpt lat="44.42813" lon="4.23992">
        <ele>187</ele>
        <time>2019-02-22T13:48:46Z</time>
      </trkpt>
      <trkpt lat="44.42811" lon="4.23995">
        <ele>187</ele>
        <time>2019-02-22T13:48:49Z</time>
      </trkpt>
      <trkpt lat="44.42809" lon="4.23997">
        <ele>188</ele>
        <time>2019-02-22T13:48:52Z</time>
      </trkpt>
      <trkpt lat="44.42789" lon="4.24012">
        <ele>190</ele>
        <time>2019-02-22T13:49:17Z</time>
      </trkpt>
      <trkpt lat="44.42786" lon="4.24015">
        <ele>190</ele>
        <time>2019-02-22T13:49:21Z</time>
      </trkpt>
      <trkpt lat="44.42784" lon="4.24018">
        <ele>190</ele>
        <time>2019-02-22T13:49:25Z</time>
      </trkpt>
      <trkpt lat="44.42779" lon="4.24028">
        <ele>190</ele>
        <time>2019-02-22T13:49:35Z</time>
      </trkpt>
      <trkpt lat="44.42775" lon="4.24035">
        <ele>190</ele>
        <time>2019-02-22T13:49:42Z</time>
      </trkpt>
      <trkpt lat="44.42757" lon="4.24066">
        <ele>192</ele>
        <time>2019-02-22T13:50:11Z</time>
      </trkpt>
      <trkpt lat="44.42747" lon="4.24087">
        <ele>193</ele>
        <time>2019-02-22T13:50:33Z</time>
      </trkpt>
      <trkpt lat="44.42729" lon="4.24119">
        <ele>193</ele>
        <time>2019-02-22T13:51:05Z</time>
      </trkpt>
      <trkpt lat="44.4271" lon="4.24158">
        <ele>192</ele>
        <time>2019-02-22T13:51:37Z</time>
      </trkpt>
      <trkpt lat="44.42692" lon="4.24189">
        <ele>192</ele>
        <time>2019-02-22T13:52:07Z</time>
      </trkpt>
      <trkpt lat="44.42688" lon="4.24195">
        <ele>192</ele>
        <time>2019-02-22T13:52:13Z</time>
      </trkpt>
      <trkpt lat="44.42678" lon="4.24206">
        <ele>191</ele>
        <time>2019-02-22T13:52:27Z</time>
      </trkpt>
      <trkpt lat="44.42673" lon="4.24216">
        <ele>191</ele>
        <time>2019-02-22T13:52:37Z</time>
      </trkpt>
      <trkpt lat="44.42672" lon="4.2422">
        <ele>190</ele>
        <time>2019-02-22T13:52:40Z</time>
      </trkpt>
      <trkpt lat="44.42659" lon="4.24248">
        <ele>190</ele>
        <time>2019-02-22T13:53:06Z</time>
      </trkpt>
      <trkpt lat="44.42641" lon="4.24278">
        <ele>190</ele>
        <time>2019-02-22T13:53:36Z</time>
      </trkpt>
      <trkpt lat="44.42628" lon="4.24297">
        <ele>187</ele>
        <time>2019-02-22T13:53:57Z</time>
      </trkpt>
      <trkpt lat="44.42615" lon="4.24311">
        <ele>185</ele>
        <time>2019-02-22T13:54:19Z</time>
      </trkpt>
      <trkpt lat="44.42612" lon="4.24315">
        <ele>184</ele>
        <time>2019-02-22T13:54:23Z</time>
      </trkpt>
      <trkpt lat="44.42606" lon="4.24324">
        <ele>184</ele>
        <time>2019-02-22T13:54:34Z</time>
      </trkpt>
      <trkpt lat="44.42603" lon="4.2433">
        <ele>184</ele>
        <time>2019-02-22T13:54:40Z</time>
      </trkpt>
      <trkpt lat="44.42595" lon="4.24338">
        <ele>184</ele>
        <time>2019-02-22T13:54:52Z</time>
      </trkpt>
      <trkpt lat="44.42593" lon="4.2434">
        <ele>184</ele>
        <time>2019-02-22T13:54:55Z</time>
      </trkpt>
      <trkpt lat="44.42588" lon="4.24345">
        <ele>183</ele>
        <time>2019-02-22T13:55:01Z</time>
      </trkpt>
      <trkpt lat="44.42586" lon="4.24348">
        <ele>183</ele>
        <time>2019-02-22T13:55:04Z</time>
      </trkpt>
      <trkpt lat="44.42577" lon="4.24359">
        <ele>181</ele>
        <time>2019-02-22T13:55:21Z</time>
      </trkpt>
      <trkpt lat="44.42563" lon="4.24375">
        <ele>180</ele>
        <time>2019-02-22T13:55:39Z</time>
      </trkpt>
      <trkpt lat="44.42546" lon="4.24387">
        <ele>178</ele>
        <time>2019-02-22T13:56:03Z</time>
      </trkpt>
      <trkpt lat="44.42539" lon="4.2439">
        <ele>177</ele>
        <time>2019-02-22T13:56:11Z</time>
      </trkpt>
      <trkpt lat="44.42531" lon="4.24397">
        <ele>177</ele>
        <time>2019-02-22T13:56:22Z</time>
      </trkpt>
      <trkpt lat="44.42525" lon="4.244">
        <ele>176</ele>
        <time>2019-02-22T13:56:29Z</time>
      </trkpt>
      <trkpt lat="44.42523" lon="4.24403">
        <ele>176</ele>
        <time>2019-02-22T13:56:32Z</time>
      </trkpt>
      <trkpt lat="44.42496" lon="4.2441">
        <ele>175</ele>
        <time>2019-02-22T13:57:02Z</time>
      </trkpt>
      <trkpt lat="44.42466" lon="4.24419">
        <ele>171</ele>
        <time>2019-02-22T13:57:36Z</time>
      </trkpt>
      <trkpt lat="44.42451" lon="4.24425">
        <ele>171</ele>
        <time>2019-02-22T13:57:54Z</time>
      </trkpt>
      <trkpt lat="44.42448" lon="4.24426">
        <ele>171</ele>
        <time>2019-02-22T13:57:58Z</time>
      </trkpt>
      <trkpt lat="44.42427" lon="4.24434">
        <ele>171</ele>
        <time>2019-02-22T13:58:20Z</time>
      </trkpt>
      <trkpt lat="44.42424" lon="4.24436">
        <ele>171</ele>
        <time>2019-02-22T13:58:24Z</time>
      </trkpt>
      <trkpt lat="44.42399" lon="4.24443">
        <ele>167</ele>
        <time>2019-02-22T13:58:55Z</time>
      </trkpt>
      <trkpt lat="44.42392" lon="4.24446">
        <ele>167</ele>
        <time>2019-02-22T13:59:03Z</time>
      </trkpt>
      <trkpt lat="44.42369" lon="4.24444">
        <ele>166</ele>
        <time>2019-02-22T13:59:28Z</time>
      </trkpt>
      <trkpt lat="44.42341" lon="4.24442">
        <ele>166</ele>
        <time>2019-02-22T13:59:56Z</time>
      </trkpt>
      <trkpt lat="44.42338" lon="4.24441">
        <ele>166</ele>
        <time>2019-02-22T13:59:59Z</time>
      </trkpt>
      <trkpt lat="44.42329" lon="4.2444">
        <ele>166</ele>
        <time>2019-02-22T14:00:09Z</time>
      </trkpt>
      <trkpt lat="44.42312" lon="4.2444">
        <ele>165</ele>
        <time>2019-02-22T14:00:27Z</time>
      </trkpt>
      <trkpt lat="44.42308" lon="4.2444">
        <ele>165</ele>
        <time>2019-02-22T14:00:30Z</time>
      </trkpt>
      <trkpt lat="44.42295" lon="4.24438">
        <ele>164</ele>
        <time>2019-02-22T14:00:42Z</time>
      </trkpt>
      <trkpt lat="44.42293" lon="4.24437">
        <ele>164</ele>
        <time>2019-02-22T14:00:45Z</time>
      </trkpt>
      <trkpt lat="44.4229" lon="4.24437">
        <ele>164</ele>
        <time>2019-02-22T14:00:49Z</time>
      </trkpt>
      <trkpt lat="44.42275" lon="4.24431">
        <ele>163</ele>
        <time>2019-02-22T14:01:06Z</time>
      </trkpt>
      <trkpt lat="44.42273" lon="4.24429">
        <ele>163</ele>
        <time>2019-02-22T14:01:09Z</time>
      </trkpt>
      <trkpt lat="44.4227" lon="4.24427">
        <ele>163</ele>
        <time>2019-02-22T14:01:12Z</time>
      </trkpt>
      <trkpt lat="44.42267" lon="4.24427">
        <ele>163</ele>
        <time>2019-02-22T14:01:15Z</time>
      </trkpt>
      <trkpt lat="44.42264" lon="4.24425">
        <ele>163</ele>
        <time>2019-02-22T14:01:18Z</time>
      </trkpt>
      <trkpt lat="44.42261" lon="4.24424">
        <ele>163</ele>
        <time>2019-02-22T14:01:22Z</time>
      </trkpt>
      <trkpt lat="44.42236" lon="4.24429">
        <ele>162</ele>
        <time>2019-02-22T14:01:53Z</time>
      </trkpt>
      <trkpt lat="44.42209" lon="4.2444">
        <ele>160</ele>
        <time>2019-02-22T14:02:26Z</time>
      </trkpt>
      <trkpt lat="44.42201" lon="4.24446">
        <ele>160</ele>
        <time>2019-02-22T14:02:36Z</time>
      </trkpt>
      <trkpt lat="44.42189" lon="4.24448">
        <ele>160</ele>
        <time>2019-02-22T14:02:51Z</time>
      </trkpt>
      <trkpt lat="44.42187" lon="4.24448">
        <ele>160</ele>
        <time>2019-02-22T14:02:55Z</time>
      </trkpt>
      <trkpt lat="44.42174" lon="4.24447">
        <ele>160</ele>
        <time>2019-02-22T14:03:08Z</time>
      </trkpt>
      <trkpt lat="44.42169" lon="4.24448">
        <ele>160</ele>
        <time>2019-02-22T14:03:14Z</time>
      </trkpt>
      <trkpt lat="44.42166" lon="4.24448">
        <ele>160</ele>
        <time>2019-02-22T14:03:18Z</time>
      </trkpt>
      <trkpt lat="44.42163" lon="4.24447">
        <ele>160</ele>
        <time>2019-02-22T14:03:22Z</time>
      </trkpt>
      <trkpt lat="44.4215" lon="4.24444">
        <ele>160</ele>
        <time>2019-02-22T14:03:37Z</time>
      </trkpt>
      <trkpt lat="44.4214" lon="4.24446">
        <ele>160</ele>
        <time>2019-02-22T14:03:47Z</time>
      </trkpt>
      <trkpt lat="44.42138" lon="4.24447">
        <ele>160</ele>
        <time>2019-02-22T14:03:50Z</time>
      </trkpt>
      <trkpt lat="44.42111" lon="4.24457">
        <ele>160</ele>
        <time>2019-02-22T14:04:19Z</time>
      </trkpt>
      <trkpt lat="44.42108" lon="4.24458">
        <ele>160</ele>
        <time>2019-02-22T14:04:23Z</time>
      </trkpt>
      <trkpt lat="44.42091" lon="4.24466">
        <ele>158</ele>
        <time>2019-02-22T14:04:44Z</time>
      </trkpt>
      <trkpt lat="44.42086" lon="4.24469">
        <ele>158</ele>
        <time>2019-02-22T14:04:51Z</time>
      </trkpt>
      <trkpt lat="44.4208" lon="4.2447">
        <ele>158</ele>
        <time>2019-02-22T14:04:57Z</time>
      </trkpt>
      <trkpt lat="44.42074" lon="4.24473">
        <ele>158</ele>
        <time>2019-02-22T14:05:03Z</time>
      </trkpt>
      <trkpt lat="44.42072" lon="4.24475">
        <ele>159</ele>
        <time>2019-02-22T14:05:07Z</time>
      </trkpt>
      <trkpt lat="44.42047" lon="4.24486">
        <ele>161</ele>
        <time>2019-02-22T14:05:37Z</time>
      </trkpt>
      <trkpt lat="44.42045" lon="4.24487">
        <ele>161</ele>
        <time>2019-02-22T14:05:40Z</time>
      </trkpt>
      <trkpt lat="44.42042" lon="4.24488">
        <ele>161</ele>
        <time>2019-02-22T14:05:44Z</time>
      </trkpt>
      <trkpt lat="44.42039" lon="4.24489">
        <ele>161</ele>
        <time>2019-02-22T14:05:48Z</time>
      </trkpt>
      <trkpt lat="44.42036" lon="4.24491">
        <ele>161</ele>
        <time>2019-02-22T14:05:53Z</time>
      </trkpt>
      <trkpt lat="44.42036" lon="4.24489">
        <ele>162</ele>
        <time>2019-02-22T14:08:54Z</time>
      </trkpt>
      <trkpt lat="44.42033" lon="4.24489">
        <ele>163</ele>
        <time>2019-02-22T14:12:14Z</time>
      </trkpt>
      <trkpt lat="44.4203" lon="4.24487">
        <ele>163</ele>
        <time>2019-02-22T14:12:26Z</time>
      </trkpt>
      <trkpt lat="44.42027" lon="4.24487">
        <ele>166</ele>
        <time>2019-02-22T14:12:34Z</time>
      </trkpt>
      <trkpt lat="44.42024" lon="4.24488">
        <ele>167</ele>
        <time>2019-02-22T14:12:37Z</time>
      </trkpt>
      <trkpt lat="44.42021" lon="4.24489">
        <ele>167</ele>
        <time>2019-02-22T14:12:41Z</time>
      </trkpt>
      <trkpt lat="44.42009" lon="4.24494">
        <ele>168</ele>
        <time>2019-02-22T14:12:57Z</time>
      </trkpt>
      <trkpt lat="44.42007" lon="4.24494">
        <ele>168</ele>
        <time>2019-02-22T14:13:01Z</time>
      </trkpt>
      <trkpt lat="44.41996" lon="4.24499">
        <ele>166</ele>
        <time>2019-02-22T14:13:15Z</time>
      </trkpt>
      <trkpt lat="44.41989" lon="4.24499">
        <ele>166</ele>
        <time>2019-02-22T14:13:24Z</time>
      </trkpt>
      <trkpt lat="44.41978" lon="4.24505">
        <ele>168</ele>
        <time>2019-02-22T14:13:42Z</time>
      </trkpt>
      <trkpt lat="44.41975" lon="4.24506">
        <ele>168</ele>
        <time>2019-02-22T14:13:47Z</time>
      </trkpt>
      <trkpt lat="44.41972" lon="4.24507">
        <ele>168</ele>
        <time>2019-02-22T14:13:52Z</time>
      </trkpt>
      <trkpt lat="44.41969" lon="4.24508">
        <ele>167</ele>
        <time>2019-02-22T14:13:58Z</time>
      </trkpt>
      <trkpt lat="44.41966" lon="4.2451">
        <ele>168</ele>
        <time>2019-02-22T14:14:02Z</time>
      </trkpt>
      <trkpt lat="44.41963" lon="4.24509">
        <ele>167</ele>
        <time>2019-02-22T14:14:05Z</time>
      </trkpt>
      <trkpt lat="44.4196" lon="4.2451">
        <ele>167</ele>
        <time>2019-02-22T14:14:09Z</time>
      </trkpt>
      <trkpt lat="44.41957" lon="4.24509">
        <ele>166</ele>
        <time>2019-02-22T14:14:12Z</time>
      </trkpt>
      <trkpt lat="44.41954" lon="4.2451">
        <ele>166</ele>
        <time>2019-02-22T14:14:16Z</time>
      </trkpt>
      <trkpt lat="44.41952" lon="4.24513">
        <ele>166</ele>
        <time>2019-02-22T14:14:22Z</time>
      </trkpt>
      <trkpt lat="44.41948" lon="4.2452">
        <ele>166</ele>
        <time>2019-02-22T14:14:31Z</time>
      </trkpt>
      <trkpt lat="44.41946" lon="4.24523">
        <ele>166</ele>
        <time>2019-02-22T14:14:35Z</time>
      </trkpt>
      <trkpt lat="44.41939" lon="4.2453">
        <ele>166</ele>
        <time>2019-02-22T14:14:48Z</time>
      </trkpt>
      <trkpt lat="44.41936" lon="4.24531">
        <ele>166</ele>
        <time>2019-02-22T14:14:53Z</time>
      </trkpt>
      <trkpt lat="44.41928" lon="4.24544">
        <ele>166</ele>
        <time>2019-02-22T14:15:11Z</time>
      </trkpt>
      <trkpt lat="44.41925" lon="4.24546">
        <ele>165</ele>
        <time>2019-02-22T14:15:16Z</time>
      </trkpt>
      <trkpt lat="44.41919" lon="4.24546">
        <ele>164</ele>
        <time>2019-02-22T14:15:25Z</time>
      </trkpt>
      <trkpt lat="44.41917" lon="4.24547">
        <ele>165</ele>
        <time>2019-02-22T14:15:29Z</time>
      </trkpt>
      <trkpt lat="44.41911" lon="4.24552">
        <ele>165</ele>
        <time>2019-02-22T14:15:37Z</time>
      </trkpt>
      <trkpt lat="44.41906" lon="4.24556">
        <ele>165</ele>
        <time>2019-02-22T14:15:45Z</time>
      </trkpt>
      <trkpt lat="44.41898" lon="4.24561">
        <ele>163</ele>
        <time>2019-02-22T14:15:57Z</time>
      </trkpt>
      <trkpt lat="44.41893" lon="4.24566">
        <ele>162</ele>
        <time>2019-02-22T14:16:04Z</time>
      </trkpt>
      <trkpt lat="44.41891" lon="4.2457">
        <ele>161</ele>
        <time>2019-02-22T14:16:08Z</time>
      </trkpt>
      <trkpt lat="44.41888" lon="4.24573">
        <ele>161</ele>
        <time>2019-02-22T14:16:12Z</time>
      </trkpt>
      <trkpt lat="44.41886" lon="4.24577">
        <ele>161</ele>
        <time>2019-02-22T14:16:17Z</time>
      </trkpt>
      <trkpt lat="44.41885" lon="4.24581">
        <ele>160</ele>
        <time>2019-02-22T14:16:21Z</time>
      </trkpt>
      <trkpt lat="44.41883" lon="4.24589">
        <ele>160</ele>
        <time>2019-02-22T14:16:28Z</time>
      </trkpt>
      <trkpt lat="44.41879" lon="4.24591">
        <ele>159</ele>
        <time>2019-02-22T14:16:33Z</time>
      </trkpt>
      <trkpt lat="44.41875" lon="4.246">
        <ele>160</ele>
        <time>2019-02-22T14:16:42Z</time>
      </trkpt>
      <trkpt lat="44.41872" lon="4.24603">
        <ele>160</ele>
        <time>2019-02-22T14:16:45Z</time>
      </trkpt>
      <trkpt lat="44.41869" lon="4.24605">
        <ele>159</ele>
        <time>2019-02-22T14:16:49Z</time>
      </trkpt>
      <trkpt lat="44.4186" lon="4.24607">
        <ele>159</ele>
        <time>2019-02-22T14:17:01Z</time>
      </trkpt>
      <trkpt lat="44.41854" lon="4.24607">
        <ele>159</ele>
        <time>2019-02-22T14:17:09Z</time>
      </trkpt>
      <trkpt lat="44.41844" lon="4.2461">
        <ele>158</ele>
        <time>2019-02-22T14:17:18Z</time>
      </trkpt>
      <trkpt lat="44.41828" lon="4.24613">
        <ele>157</ele>
        <time>2019-02-22T14:17:34Z</time>
      </trkpt>
      <trkpt lat="44.41821" lon="4.24615">
        <ele>157</ele>
        <time>2019-02-22T14:17:42Z</time>
      </trkpt>
      <trkpt lat="44.41808" lon="4.24623">
        <ele>155</ele>
        <time>2019-02-22T14:17:59Z</time>
      </trkpt>
      <trkpt lat="44.41806" lon="4.24626">
        <ele>155</ele>
        <time>2019-02-22T14:18:03Z</time>
      </trkpt>
      <trkpt lat="44.41803" lon="4.24627">
        <ele>155</ele>
        <time>2019-02-22T14:18:07Z</time>
      </trkpt>
      <trkpt lat="44.418" lon="4.24629">
        <ele>155</ele>
        <time>2019-02-22T14:18:11Z</time>
      </trkpt>
      <trkpt lat="44.41797" lon="4.24632">
        <ele>155</ele>
        <time>2019-02-22T14:18:15Z</time>
      </trkpt>
      <trkpt lat="44.41792" lon="4.24631">
        <ele>155</ele>
        <time>2019-02-22T14:18:23Z</time>
      </trkpt>
      <trkpt lat="44.41774" lon="4.24636">
        <ele>154</ele>
        <time>2019-02-22T14:18:46Z</time>
      </trkpt>
      <trkpt lat="44.41759" lon="4.24637">
        <ele>152</ele>
        <time>2019-02-22T14:19:03Z</time>
      </trkpt>
      <trkpt lat="44.41756" lon="4.24638">
        <ele>152</ele>
        <time>2019-02-22T14:19:07Z</time>
      </trkpt>
      <trkpt lat="44.4175" lon="4.2464">
        <ele>152</ele>
        <time>2019-02-22T14:19:15Z</time>
      </trkpt>
      <trkpt lat="44.41747" lon="4.24641">
        <ele>152</ele>
        <time>2019-02-22T14:19:19Z</time>
      </trkpt>
      <trkpt lat="44.41728" lon="4.24654">
        <ele>151</ele>
        <time>2019-02-22T14:19:44Z</time>
      </trkpt>
      <trkpt lat="44.41726" lon="4.24656">
        <ele>152</ele>
        <time>2019-02-22T14:19:47Z</time>
      </trkpt>
      <trkpt lat="44.41716" lon="4.24664">
        <ele>151</ele>
        <time>2019-02-22T14:19:59Z</time>
      </trkpt>
      <trkpt lat="44.41711" lon="4.24668">
        <ele>151</ele>
        <time>2019-02-22T14:20:07Z</time>
      </trkpt>
      <trkpt lat="44.41705" lon="4.24673">
        <ele>150</ele>
        <time>2019-02-22T14:20:15Z</time>
      </trkpt>
      <trkpt lat="44.41703" lon="4.24675">
        <ele>151</ele>
        <time>2019-02-22T14:20:18Z</time>
      </trkpt>
      <trkpt lat="44.41699" lon="4.24677">
        <ele>151</ele>
        <time>2019-02-22T14:20:22Z</time>
      </trkpt>
      <trkpt lat="44.41697" lon="4.24677">
        <ele>151</ele>
        <time>2019-02-22T14:20:26Z</time>
      </trkpt>
      <trkpt lat="44.41685" lon="4.24681">
        <ele>150</ele>
        <time>2019-02-22T14:20:41Z</time>
      </trkpt>
      <trkpt lat="44.41673" lon="4.24688">
        <ele>150</ele>
        <time>2019-02-22T14:20:56Z</time>
      </trkpt>
      <trkpt lat="44.41671" lon="4.2469">
        <ele>150</ele>
        <time>2019-02-22T14:21:00Z</time>
      </trkpt>
      <trkpt lat="44.41668" lon="4.24692">
        <ele>150</ele>
        <time>2019-02-22T14:21:04Z</time>
      </trkpt>
      <trkpt lat="44.41664" lon="4.24693">
        <ele>150</ele>
        <time>2019-02-22T14:21:08Z</time>
      </trkpt>
      <trkpt lat="44.41657" lon="4.24701">
        <ele>150</ele>
        <time>2019-02-22T14:21:19Z</time>
      </trkpt>
      <trkpt lat="44.41655" lon="4.24703">
        <ele>149</ele>
        <time>2019-02-22T14:21:23Z</time>
      </trkpt>
      <trkpt lat="44.41633" lon="4.2472">
        <ele>147</ele>
        <time>2019-02-22T14:21:56Z</time>
      </trkpt>
      <trkpt lat="44.41627" lon="4.24729">
        <ele>147</ele>
        <time>2019-02-22T14:22:10Z</time>
      </trkpt>
      <trkpt lat="44.41625" lon="4.24733">
        <ele>147</ele>
        <time>2019-02-22T14:22:15Z</time>
      </trkpt>
      <trkpt lat="44.41614" lon="4.2474">
        <ele>147</ele>
        <time>2019-02-22T14:22:31Z</time>
      </trkpt>
      <trkpt lat="44.41609" lon="4.24745">
        <ele>147</ele>
        <time>2019-02-22T14:22:38Z</time>
      </trkpt>
      <trkpt lat="44.41607" lon="4.24748">
        <ele>147</ele>
        <time>2019-02-22T14:22:42Z</time>
      </trkpt>
      <trkpt lat="44.41603" lon="4.24754">
        <ele>146</ele>
        <time>2019-02-22T14:22:50Z</time>
      </trkpt>
      <trkpt lat="44.41577" lon="4.24774">
        <ele>144</ele>
        <time>2019-02-22T14:23:22Z</time>
      </trkpt>
      <trkpt lat="44.41563" lon="4.24783">
        <ele>143</ele>
        <time>2019-02-22T14:23:39Z</time>
      </trkpt>
      <trkpt lat="44.41561" lon="4.24784">
        <ele>143</ele>
        <time>2019-02-22T14:23:42Z</time>
      </trkpt>
      <trkpt lat="44.41535" lon="4.24796">
        <ele>142</ele>
        <time>2019-02-22T14:24:14Z</time>
      </trkpt>
      <trkpt lat="44.41532" lon="4.24797">
        <ele>141</ele>
        <time>2019-02-22T14:24:17Z</time>
      </trkpt>
      <trkpt lat="44.41519" lon="4.24807">
        <ele>142</ele>
        <time>2019-02-22T14:24:38Z</time>
      </trkpt>
      <trkpt lat="44.41516" lon="4.24811">
        <ele>142</ele>
        <time>2019-02-22T14:24:41Z</time>
      </trkpt>
      <trkpt lat="44.41514" lon="4.24813">
        <ele>142</ele>
        <time>2019-02-22T14:24:44Z</time>
      </trkpt>
      <trkpt lat="44.41511" lon="4.24814">
        <ele>141</ele>
        <time>2019-02-22T14:24:47Z</time>
      </trkpt>
      <trkpt lat="44.41499" lon="4.24817">
        <ele>141</ele>
        <time>2019-02-22T14:25:01Z</time>
      </trkpt>
      <trkpt lat="44.41494" lon="4.24821">
        <ele>141</ele>
        <time>2019-02-22T14:25:10Z</time>
      </trkpt>
      <trkpt lat="44.41473" lon="4.24824">
        <ele>140</ele>
        <time>2019-02-22T14:25:42Z</time>
      </trkpt>
      <trkpt lat="44.4147" lon="4.24825">
        <ele>140</ele>
        <time>2019-02-22T14:25:46Z</time>
      </trkpt>
      <trkpt lat="44.41467" lon="4.24825">
        <ele>140</ele>
        <time>2019-02-22T14:25:51Z</time>
      </trkpt>
      <trkpt lat="44.41464" lon="4.24823">
        <ele>140</ele>
        <time>2019-02-22T14:25:56Z</time>
      </trkpt>
      <trkpt lat="44.41455" lon="4.24825">
        <ele>140</ele>
        <time>2019-02-22T14:26:10Z</time>
      </trkpt>
      <trkpt lat="44.41452" lon="4.24822">
        <ele>140</ele>
        <time>2019-02-22T14:26:14Z</time>
      </trkpt>
      <trkpt lat="44.41449" lon="4.24822">
        <ele>140</ele>
        <time>2019-02-22T14:26:18Z</time>
      </trkpt>
      <trkpt lat="44.41446" lon="4.24824">
        <ele>139</ele>
        <time>2019-02-22T14:26:22Z</time>
      </trkpt>
      <trkpt lat="44.4144" lon="4.24825">
        <ele>140</ele>
        <time>2019-02-22T14:26:28Z</time>
      </trkpt>
      <trkpt lat="44.41437" lon="4.24826">
        <ele>139</ele>
        <time>2019-02-22T14:26:32Z</time>
      </trkpt>
      <trkpt lat="44.41435" lon="4.24829">
        <ele>139</ele>
        <time>2019-02-22T14:26:36Z</time>
      </trkpt>
      <trkpt lat="44.41433" lon="4.2483">
        <ele>138</ele>
        <time>2019-02-22T14:26:40Z</time>
      </trkpt>
      <trkpt lat="44.4143" lon="4.24828">
        <ele>138</ele>
        <time>2019-02-22T14:26:44Z</time>
      </trkpt>
      <trkpt lat="44.41428" lon="4.24826">
        <ele>138</ele>
        <time>2019-02-22T14:26:49Z</time>
      </trkpt>
      <trkpt lat="44.41425" lon="4.24827">
        <ele>139</ele>
        <time>2019-02-22T14:26:53Z</time>
      </trkpt>
      <trkpt lat="44.41416" lon="4.24828">
        <ele>138</ele>
        <time>2019-02-22T14:27:06Z</time>
      </trkpt>
      <trkpt lat="44.41407" lon="4.24829">
        <ele>137</ele>
        <time>2019-02-22T14:27:21Z</time>
      </trkpt>
      <trkpt lat="44.41404" lon="4.24829">
        <ele>137</ele>
        <time>2019-02-22T14:27:26Z</time>
      </trkpt>
      <trkpt lat="44.41401" lon="4.24827">
        <ele>137</ele>
        <time>2019-02-22T14:27:32Z</time>
      </trkpt>
      <trkpt lat="44.41398" lon="4.24826">
        <ele>137</ele>
        <time>2019-02-22T14:27:36Z</time>
      </trkpt>
      <trkpt lat="44.41396" lon="4.24826">
        <ele>137</ele>
        <time>2019-02-22T14:27:39Z</time>
      </trkpt>
      <trkpt lat="44.41396" lon="4.24818">
        <ele>135</ele>
        <time>2019-02-22T14:28:04Z</time>
      </trkpt>
      <trkpt lat="44.41394" lon="4.24814">
        <ele>136</ele>
        <time>2019-02-22T14:28:07Z</time>
      </trkpt>
      <trkpt lat="44.41391" lon="4.24812">
        <ele>136</ele>
        <time>2019-02-22T14:28:11Z</time>
      </trkpt>
      <trkpt lat="44.41386" lon="4.24812">
        <ele>136</ele>
        <time>2019-02-22T14:28:18Z</time>
      </trkpt>
      <trkpt lat="44.41383" lon="4.24811">
        <ele>136</ele>
        <time>2019-02-22T14:28:23Z</time>
      </trkpt>
      <trkpt lat="44.4138" lon="4.2481">
        <ele>135</ele>
        <time>2019-02-22T14:28:26Z</time>
      </trkpt>
      <trkpt lat="44.41377" lon="4.2481">
        <ele>135</ele>
        <time>2019-02-22T14:28:31Z</time>
      </trkpt>
      <trkpt lat="44.41368" lon="4.24811">
        <ele>135</ele>
        <time>2019-02-22T14:28:45Z</time>
      </trkpt>
      <trkpt lat="44.41365" lon="4.24811">
        <ele>135</ele>
        <time>2019-02-22T14:28:51Z</time>
      </trkpt>
      <trkpt lat="44.41363" lon="4.24809">
        <ele>135</ele>
        <time>2019-02-22T14:28:57Z</time>
      </trkpt>
      <trkpt lat="44.4136" lon="4.2481">
        <ele>136</ele>
        <time>2019-02-22T14:29:01Z</time>
      </trkpt>
      <trkpt lat="44.41351" lon="4.24805">
        <ele>136</ele>
        <time>2019-02-22T14:29:13Z</time>
      </trkpt>
      <trkpt lat="44.41347" lon="4.24811">
        <ele>136</ele>
        <time>2019-02-22T14:29:20Z</time>
      </trkpt>
      <trkpt lat="44.41345" lon="4.24812">
        <ele>136</ele>
        <time>2019-02-22T14:29:24Z</time>
      </trkpt>
      <trkpt lat="44.41341" lon="4.24811">
        <ele>136</ele>
        <time>2019-02-22T14:29:28Z</time>
      </trkpt>
      <trkpt lat="44.41338" lon="4.24811">
        <ele>136</ele>
        <time>2019-02-22T14:29:32Z</time>
      </trkpt>
      <trkpt lat="44.41335" lon="4.24811">
        <ele>137</ele>
        <time>2019-02-22T14:29:36Z</time>
      </trkpt>
      <trkpt lat="44.41333" lon="4.24807">
        <ele>137</ele>
        <time>2019-02-22T14:29:40Z</time>
      </trkpt>
      <trkpt lat="44.41331" lon="4.24805">
        <ele>137</ele>
        <time>2019-02-22T14:29:43Z</time>
      </trkpt>
      <trkpt lat="44.41328" lon="4.24804">
        <ele>137</ele>
        <time>2019-02-22T14:29:47Z</time>
      </trkpt>
      <trkpt lat="44.41325" lon="4.24803">
        <ele>137</ele>
        <time>2019-02-22T14:29:51Z</time>
      </trkpt>
      <trkpt lat="44.41323" lon="4.248">
        <ele>138</ele>
        <time>2019-02-22T14:29:56Z</time>
      </trkpt>
      <trkpt lat="44.41304" lon="4.24795">
        <ele>137</ele>
        <time>2019-02-22T14:30:23Z</time>
      </trkpt>
      <trkpt lat="44.41286" lon="4.24791">
        <ele>136</ele>
        <time>2019-02-22T14:30:44Z</time>
      </trkpt>
      <trkpt lat="44.41275" lon="4.24792">
        <ele>135</ele>
        <time>2019-02-22T14:30:56Z</time>
      </trkpt>
      <trkpt lat="44.41272" lon="4.24792">
        <ele>135</ele>
        <time>2019-02-22T14:31:00Z</time>
      </trkpt>
      <trkpt lat="44.41269" lon="4.2479">
        <ele>135</ele>
        <time>2019-02-22T14:31:03Z</time>
      </trkpt>
      <trkpt lat="44.41264" lon="4.24787">
        <ele>135</ele>
        <time>2019-02-22T14:31:09Z</time>
      </trkpt>
      <trkpt lat="44.41261" lon="4.24787">
        <ele>136</ele>
        <time>2019-02-22T14:31:12Z</time>
      </trkpt>
      <trkpt lat="44.41257" lon="4.24787">
        <ele>136</ele>
        <time>2019-02-22T14:31:15Z</time>
      </trkpt>
      <trkpt lat="44.41255" lon="4.24785">
        <ele>136</ele>
        <time>2019-02-22T14:31:19Z</time>
      </trkpt>
      <trkpt lat="44.41252" lon="4.24783">
        <ele>135</ele>
        <time>2019-02-22T14:31:23Z</time>
      </trkpt>
      <trkpt lat="44.41249" lon="4.24784">
        <ele>135</ele>
        <time>2019-02-22T14:31:27Z</time>
      </trkpt>
      <trkpt lat="44.41246" lon="4.24784">
        <ele>135</ele>
        <time>2019-02-22T14:31:31Z</time>
      </trkpt>
      <trkpt lat="44.41245" lon="4.2478">
        <ele>135</ele>
        <time>2019-02-22T14:31:35Z</time>
      </trkpt>
      <trkpt lat="44.41224" lon="4.24788">
        <ele>133</ele>
        <time>2019-02-22T14:31:57Z</time>
      </trkpt>
      <trkpt lat="44.41222" lon="4.2479">
        <ele>133</ele>
        <time>2019-02-22T14:32:00Z</time>
      </trkpt>
      <trkpt lat="44.41221" lon="4.24795">
        <ele>133</ele>
        <time>2019-02-22T14:32:03Z</time>
      </trkpt>
      <trkpt lat="44.41222" lon="4.24799">
        <ele>133</ele>
        <time>2019-02-22T14:32:06Z</time>
      </trkpt>
      <trkpt lat="44.41223" lon="4.24802">
        <ele>133</ele>
        <time>2019-02-22T14:32:09Z</time>
      </trkpt>
      <trkpt lat="44.41224" lon="4.24806">
        <ele>133</ele>
        <time>2019-02-22T14:32:13Z</time>
      </trkpt>
      <trkpt lat="44.41221" lon="4.24808">
        <ele>133</ele>
        <time>2019-02-22T14:32:18Z</time>
      </trkpt>
      <trkpt lat="44.41212" lon="4.24807">
        <ele>134</ele>
        <time>2019-02-22T14:32:32Z</time>
      </trkpt>
      <trkpt lat="44.41213" lon="4.24804">
        <ele>133</ele>
        <time>2019-02-22T14:32:55Z</time>
      </trkpt>
      <trkpt lat="44.4121" lon="4.24805">
        <ele>133</ele>
        <time>2019-02-22T14:35:54Z</time>
      </trkpt>
      <trkpt lat="44.41195" lon="4.24805">
        <ele>133</ele>
        <time>2019-02-22T14:36:16Z</time>
      </trkpt>
      <trkpt lat="44.41189" lon="4.24807">
        <ele>133</ele>
        <time>2019-02-22T14:36:27Z</time>
      </trkpt>
      <trkpt lat="44.41185" lon="4.24809">
        <ele>132</ele>
        <time>2019-02-22T14:36:31Z</time>
      </trkpt>
      <trkpt lat="44.41182" lon="4.24811">
        <ele>131</ele>
        <time>2019-02-22T14:36:35Z</time>
      </trkpt>
      <trkpt lat="44.41179" lon="4.24812">
        <ele>131</ele>
        <time>2019-02-22T14:36:39Z</time>
      </trkpt>
      <trkpt lat="44.41177" lon="4.24809">
        <ele>131</ele>
        <time>2019-02-22T14:36:42Z</time>
      </trkpt>
      <trkpt lat="44.41177" lon="4.24805">
        <ele>131</ele>
        <time>2019-02-22T14:36:45Z</time>
      </trkpt>
      <trkpt lat="44.4118" lon="4.24797">
        <ele>132</ele>
        <time>2019-02-22T14:36:52Z</time>
      </trkpt>
      <trkpt lat="44.41183" lon="4.2479">
        <ele>133</ele>
        <time>2019-02-22T14:36:58Z</time>
      </trkpt>
      <trkpt lat="44.41188" lon="4.24779">
        <ele>133</ele>
        <time>2019-02-22T14:37:10Z</time>
      </trkpt>
      <trkpt lat="44.41193" lon="4.24774">
        <ele>133</ele>
        <time>2019-02-22T14:37:29Z</time>
      </trkpt>
      <trkpt lat="44.41198" lon="4.24769">
        <ele>134</ele>
        <time>2019-02-22T14:37:37Z</time>
      </trkpt>
      <trkpt lat="44.41206" lon="4.24756">
        <ele>135</ele>
        <time>2019-02-22T14:37:52Z</time>
      </trkpt>
      <trkpt lat="44.41209" lon="4.24748">
        <ele>135</ele>
        <time>2019-02-22T14:38:01Z</time>
      </trkpt>
      <trkpt lat="44.41212" lon="4.24745">
        <ele>135</ele>
        <time>2019-02-22T14:38:07Z</time>
      </trkpt>
      <trkpt lat="44.41219" lon="4.24732">
        <ele>136</ele>
        <time>2019-02-22T14:38:25Z</time>
      </trkpt>
      <trkpt lat="44.41221" lon="4.24729">
        <ele>136</ele>
        <time>2019-02-22T14:38:30Z</time>
      </trkpt>
      <trkpt lat="44.41222" lon="4.24725">
        <ele>136</ele>
        <time>2019-02-22T14:38:35Z</time>
      </trkpt>
      <trkpt lat="44.41223" lon="4.24721">
        <ele>136</ele>
        <time>2019-02-22T14:38:40Z</time>
      </trkpt>
      <trkpt lat="44.41226" lon="4.24719">
        <ele>136</ele>
        <time>2019-02-22T14:38:45Z</time>
      </trkpt>
      <trkpt lat="44.4123" lon="4.24703">
        <ele>138</ele>
        <time>2019-02-22T14:39:03Z</time>
      </trkpt>
      <trkpt lat="44.41233" lon="4.247">
        <ele>138</ele>
        <time>2019-02-22T14:39:07Z</time>
      </trkpt>
      <trkpt lat="44.41236" lon="4.24699">
        <ele>139</ele>
        <time>2019-02-22T14:39:11Z</time>
      </trkpt>
      <trkpt lat="44.41248" lon="4.24696">
        <ele>138</ele>
        <time>2019-02-22T14:39:29Z</time>
      </trkpt>
      <trkpt lat="44.41264" lon="4.24686">
        <ele>140</ele>
        <time>2019-02-22T14:39:55Z</time>
      </trkpt>
      <trkpt lat="44.41279" lon="4.24682">
        <ele>141</ele>
        <time>2019-02-22T14:40:16Z</time>
      </trkpt>
      <trkpt lat="44.41287" lon="4.24678">
        <ele>141</ele>
        <time>2019-02-22T14:40:28Z</time>
      </trkpt>
      <trkpt lat="44.4129" lon="4.24676">
        <ele>141</ele>
        <time>2019-02-22T14:40:32Z</time>
      </trkpt>
      <trkpt lat="44.41307" lon="4.24658">
        <ele>143</ele>
        <time>2019-02-22T14:41:00Z</time>
      </trkpt>
      <trkpt lat="44.41326" lon="4.24637">
        <ele>145</ele>
        <time>2019-02-22T14:41:32Z</time>
      </trkpt>
      <trkpt lat="44.41342" lon="4.24618">
        <ele>147</ele>
        <time>2019-02-22T14:42:03Z</time>
      </trkpt>
      <trkpt lat="44.4135" lon="4.2461">
        <ele>148</ele>
        <time>2019-02-22T14:42:18Z</time>
      </trkpt>
      <trkpt lat="44.41361" lon="4.24602">
        <ele>148</ele>
        <time>2019-02-22T14:42:35Z</time>
      </trkpt>
      <trkpt lat="44.4138" lon="4.24582">
        <ele>149</ele>
        <time>2019-02-22T14:43:07Z</time>
      </trkpt>
      <trkpt lat="44.41388" lon="4.24574">
        <ele>150</ele>
        <time>2019-02-22T14:43:22Z</time>
      </trkpt>
      <trkpt lat="44.41392" lon="4.24567">
        <ele>150</ele>
        <time>2019-02-22T14:43:30Z</time>
      </trkpt>
      <trkpt lat="44.41397" lon="4.24562">
        <ele>150</ele>
        <time>2019-02-22T14:43:38Z</time>
      </trkpt>
      <trkpt lat="44.414" lon="4.24559">
        <ele>150</ele>
        <time>2019-02-22T14:43:43Z</time>
      </trkpt>
      <trkpt lat="44.41412" lon="4.24545">
        <ele>150</ele>
        <time>2019-02-22T14:44:04Z</time>
      </trkpt>
      <trkpt lat="44.41418" lon="4.24535">
        <ele>149</ele>
        <time>2019-02-22T14:44:15Z</time>
      </trkpt>
      <trkpt lat="44.41428" lon="4.24524">
        <ele>150</ele>
        <time>2019-02-22T14:44:32Z</time>
      </trkpt>
      <trkpt lat="44.41434" lon="4.24514">
        <ele>150</ele>
        <time>2019-02-22T14:44:42Z</time>
      </trkpt>
      <trkpt lat="44.41439" lon="4.2451">
        <ele>149</ele>
        <time>2019-02-22T14:44:49Z</time>
      </trkpt>
      <trkpt lat="44.41441" lon="4.24506">
        <ele>150</ele>
        <time>2019-02-22T14:44:53Z</time>
      </trkpt>
      <trkpt lat="44.41461" lon="4.24483">
        <ele>152</ele>
        <time>2019-02-22T14:45:25Z</time>
      </trkpt>
      <trkpt lat="44.41479" lon="4.24464">
        <ele>154</ele>
        <time>2019-02-22T14:45:55Z</time>
      </trkpt>
      <trkpt lat="44.41484" lon="4.24458">
        <ele>155</ele>
        <time>2019-02-22T14:46:03Z</time>
      </trkpt>
      <trkpt lat="44.41486" lon="4.24455">
        <ele>155</ele>
        <time>2019-02-22T14:46:07Z</time>
      </trkpt>
      <trkpt lat="44.41488" lon="4.24453">
        <ele>155</ele>
        <time>2019-02-22T14:46:11Z</time>
      </trkpt>
      <trkpt lat="44.41491" lon="4.24449">
        <ele>155</ele>
        <time>2019-02-22T14:46:15Z</time>
      </trkpt>
      <trkpt lat="44.41497" lon="4.2444">
        <ele>155</ele>
        <time>2019-02-22T14:46:27Z</time>
      </trkpt>
      <trkpt lat="44.41518" lon="4.24414">
        <ele>157</ele>
        <time>2019-02-22T14:46:59Z</time>
      </trkpt>
      <trkpt lat="44.4152" lon="4.24411">
        <ele>157</ele>
        <time>2019-02-22T14:47:03Z</time>
      </trkpt>
      <trkpt lat="44.41522" lon="4.24409">
        <ele>157</ele>
        <time>2019-02-22T14:47:07Z</time>
      </trkpt>
      <trkpt lat="44.41529" lon="4.244">
        <ele>157</ele>
        <time>2019-02-22T14:47:19Z</time>
      </trkpt>
      <trkpt lat="44.41544" lon="4.24373">
        <ele>159</ele>
        <time>2019-02-22T14:47:50Z</time>
      </trkpt>
      <trkpt lat="44.41558" lon="4.24346">
        <ele>162</ele>
        <time>2019-02-22T14:48:21Z</time>
      </trkpt>
      <trkpt lat="44.4156" lon="4.24338">
        <ele>163</ele>
        <time>2019-02-22T14:48:29Z</time>
      </trkpt>
      <trkpt lat="44.41571" lon="4.24323">
        <ele>163</ele>
        <time>2019-02-22T14:48:49Z</time>
      </trkpt>
      <trkpt lat="44.41573" lon="4.2432">
        <ele>164</ele>
        <time>2019-02-22T14:48:53Z</time>
      </trkpt>
      <trkpt lat="44.41579" lon="4.24311">
        <ele>164</ele>
        <time>2019-02-22T14:49:40Z</time>
      </trkpt>
      <trkpt lat="44.41598" lon="4.24291">
        <ele>163</ele>
        <time>2019-02-22T14:50:13Z</time>
      </trkpt>
      <trkpt lat="44.41606" lon="4.24282">
        <ele>164</ele>
        <time>2019-02-22T14:50:25Z</time>
      </trkpt>
      <trkpt lat="44.41608" lon="4.24279">
        <ele>164</ele>
        <time>2019-02-22T14:50:28Z</time>
      </trkpt>
      <trkpt lat="44.41618" lon="4.24269">
        <ele>165</ele>
        <time>2019-02-22T14:50:42Z</time>
      </trkpt>
      <trkpt lat="44.41635" lon="4.24258">
        <ele>166</ele>
        <time>2019-02-22T14:51:04Z</time>
      </trkpt>
      <trkpt lat="44.41647" lon="4.24255">
        <ele>165</ele>
        <time>2019-02-22T14:51:18Z</time>
      </trkpt>
      <trkpt lat="44.41651" lon="4.24255">
        <ele>165</ele>
        <time>2019-02-22T14:51:22Z</time>
      </trkpt>
      <trkpt lat="44.41654" lon="4.24254">
        <ele>165</ele>
        <time>2019-02-22T14:51:25Z</time>
      </trkpt>
      <trkpt lat="44.4168" lon="4.24252">
        <ele>164</ele>
        <time>2019-02-22T14:51:55Z</time>
      </trkpt>
      <trkpt lat="44.41701" lon="4.24253">
        <ele>164</ele>
        <time>2019-02-22T14:52:19Z</time>
      </trkpt>
      <trkpt lat="44.41711" lon="4.2425">
        <ele>164</ele>
        <time>2019-02-22T14:52:32Z</time>
      </trkpt>
      <trkpt lat="44.41721" lon="4.24248">
        <ele>162</ele>
        <time>2019-02-22T14:52:43Z</time>
      </trkpt>
      <trkpt lat="44.41727" lon="4.24246">
        <ele>162</ele>
        <time>2019-02-22T14:52:49Z</time>
      </trkpt>
      <trkpt lat="44.41751" lon="4.24243">
        <ele>161</ele>
        <time>2019-02-22T14:53:17Z</time>
      </trkpt>
      <trkpt lat="44.41767" lon="4.24235">
        <ele>159</ele>
        <time>2019-02-22T14:53:37Z</time>
      </trkpt>
      <trkpt lat="44.41769" lon="4.24232">
        <ele>159</ele>
        <time>2019-02-22T14:53:41Z</time>
      </trkpt>
      <trkpt lat="44.4179" lon="4.24214">
        <ele>156</ele>
        <time>2019-02-22T14:54:13Z</time>
      </trkpt>
      <trkpt lat="44.41796" lon="4.24211">
        <ele>154</ele>
        <time>2019-02-22T14:54:21Z</time>
      </trkpt>
      <trkpt lat="44.41821" lon="4.24208">
        <ele>152</ele>
        <time>2019-02-22T14:54:52Z</time>
      </trkpt>
      <trkpt lat="44.41847" lon="4.24201">
        <ele>151</ele>
        <time>2019-02-22T14:55:22Z</time>
      </trkpt>
      <trkpt lat="44.41867" lon="4.24191">
        <ele>152</ele>
        <time>2019-02-22T14:55:48Z</time>
      </trkpt>
      <trkpt lat="44.41874" lon="4.24185">
        <ele>153</ele>
        <time>2019-02-22T14:55:57Z</time>
      </trkpt>
      <trkpt lat="44.41893" lon="4.2416">
        <ele>154</ele>
        <time>2019-02-22T14:56:27Z</time>
      </trkpt>
      <trkpt lat="44.41905" lon="4.24145">
        <ele>156</ele>
        <time>2019-02-22T14:56:47Z</time>
      </trkpt>
      <trkpt lat="44.41911" lon="4.24139">
        <ele>156</ele>
        <time>2019-02-22T14:56:55Z</time>
      </trkpt>
      <trkpt lat="44.41914" lon="4.24138">
        <ele>156</ele>
        <time>2019-02-22T14:56:59Z</time>
      </trkpt>
      <trkpt lat="44.41917" lon="4.24137">
        <ele>156</ele>
        <time>2019-02-22T14:57:03Z</time>
      </trkpt>
      <trkpt lat="44.41937" lon="4.24115">
        <ele>157</ele>
        <time>2019-02-22T14:57:36Z</time>
      </trkpt>
      <trkpt lat="44.41945" lon="4.24107">
        <ele>157</ele>
        <time>2019-02-22T14:57:48Z</time>
      </trkpt>
      <trkpt lat="44.4195" lon="4.24101">
        <ele>158</ele>
        <time>2019-02-22T14:57:56Z</time>
      </trkpt>
      <trkpt lat="44.41971" lon="4.24081">
        <ele>162</ele>
        <time>2019-02-22T14:58:29Z</time>
      </trkpt>
      <trkpt lat="44.41992" lon="4.24064">
        <ele>163</ele>
        <time>2019-02-22T14:59:01Z</time>
      </trkpt>
      <trkpt lat="44.41995" lon="4.24061">
        <ele>164</ele>
        <time>2019-02-22T14:59:04Z</time>
      </trkpt>
      <trkpt lat="44.42" lon="4.24057">
        <ele>163</ele>
        <time>2019-02-22T14:59:11Z</time>
      </trkpt>
      <trkpt lat="44.42003" lon="4.24056">
        <ele>163</ele>
        <time>2019-02-22T14:59:15Z</time>
      </trkpt>
      <trkpt lat="44.42006" lon="4.24058">
        <ele>163</ele>
        <time>2019-02-22T14:59:19Z</time>
      </trkpt>
      <trkpt lat="44.42008" lon="4.2406">
        <ele>163</ele>
        <time>2019-02-22T14:59:23Z</time>
      </trkpt>
      <trkpt lat="44.4201" lon="4.24063">
        <ele>162</ele>
        <time>2019-02-22T14:59:28Z</time>
      </trkpt>
      <trkpt lat="44.42013" lon="4.24071">
        <ele>161</ele>
        <time>2019-02-22T14:59:37Z</time>
      </trkpt>
      <trkpt lat="44.42014" lon="4.24076">
        <ele>162</ele>
        <time>2019-02-22T14:59:42Z</time>
      </trkpt>
      <trkpt lat="44.42017" lon="4.24083">
        <ele>162</ele>
        <time>2019-02-22T14:59:51Z</time>
      </trkpt>
      <trkpt lat="44.42019" lon="4.24087">
        <ele>163</ele>
        <time>2019-02-22T14:59:56Z</time>
      </trkpt>
      <trkpt lat="44.42022" lon="4.24094">
        <ele>165</ele>
        <time>2019-02-22T15:00:04Z</time>
      </trkpt>
      <trkpt lat="44.42029" lon="4.24103">
        <ele>167</ele>
        <time>2019-02-22T15:00:17Z</time>
      </trkpt>
      <trkpt lat="44.42042" lon="4.24106">
        <ele>170</ele>
        <time>2019-02-22T15:00:33Z</time>
      </trkpt>
      <trkpt lat="44.42045" lon="4.24106">
        <ele>170</ele>
        <time>2019-02-22T15:00:38Z</time>
      </trkpt>
      <trkpt lat="44.42057" lon="4.2411">
        <ele>169</ele>
        <time>2019-02-22T15:00:54Z</time>
      </trkpt>
      <trkpt lat="44.42055" lon="4.24107">
        <ele>170</ele>
        <time>2019-02-22T15:01:15Z</time>
      </trkpt>
      <trkpt lat="44.42066" lon="4.24119">
        <ele>169</ele>
        <time>2019-02-22T15:01:58Z</time>
      </trkpt>
      <trkpt lat="44.42073" lon="4.24117">
        <ele>168</ele>
        <time>2019-02-22T15:02:06Z</time>
      </trkpt>
      <trkpt lat="44.42075" lon="4.24121">
        <ele>167</ele>
        <time>2019-02-22T15:02:16Z</time>
      </trkpt>
      <trkpt lat="44.42078" lon="4.24122">
        <ele>166</ele>
        <time>2019-02-22T15:02:20Z</time>
      </trkpt>
      <trkpt lat="44.42081" lon="4.2412">
        <ele>166</ele>
        <time>2019-02-22T15:02:24Z</time>
      </trkpt>
      <trkpt lat="44.42083" lon="4.24117">
        <ele>166</ele>
        <time>2019-02-22T15:02:28Z</time>
      </trkpt>
      <trkpt lat="44.42089" lon="4.24115">
        <ele>168</ele>
        <time>2019-02-22T15:02:39Z</time>
      </trkpt>
      <trkpt lat="44.42092" lon="4.24116">
        <ele>168</ele>
        <time>2019-02-22T15:02:44Z</time>
      </trkpt>
      <trkpt lat="44.42095" lon="4.24115">
        <ele>170</ele>
        <time>2019-02-22T15:03:44Z</time>
      </trkpt>
      <trkpt lat="44.42097" lon="4.24114">
        <ele>171</ele>
        <time>2019-02-22T15:05:17Z</time>
      </trkpt>
      <trkpt lat="44.42099" lon="4.24111">
        <ele>172</ele>
        <time>2019-02-22T15:05:21Z</time>
      </trkpt>
      <trkpt lat="44.42101" lon="4.24112">
        <ele>172</ele>
        <time>2019-02-22T15:05:24Z</time>
      </trkpt>
      <trkpt lat="44.42105" lon="4.24111">
        <ele>172</ele>
        <time>2019-02-22T15:05:28Z</time>
      </trkpt>
      <trkpt lat="44.42107" lon="4.24108">
        <ele>172</ele>
        <time>2019-02-22T15:05:48Z</time>
      </trkpt>
      <trkpt lat="44.42107" lon="4.2411">
        <ele>172</ele>
        <time>2019-02-22T15:07:55Z</time>
      </trkpt>
      <trkpt lat="44.42104" lon="4.2411">
        <ele>172</ele>
        <time>2019-02-22T15:07:59Z</time>
      </trkpt>
      <trkpt lat="44.42095" lon="4.24111">
        <ele>169</ele>
        <time>2019-02-22T15:08:13Z</time>
      </trkpt>
      <trkpt lat="44.42093" lon="4.24113">
        <ele>169</ele>
        <time>2019-02-22T15:08:24Z</time>
      </trkpt>
      <trkpt lat="44.4209" lon="4.24115">
        <ele>168</ele>
        <time>2019-02-22T15:08:27Z</time>
      </trkpt>
      <trkpt lat="44.42087" lon="4.24116">
        <ele>168</ele>
        <time>2019-02-22T15:08:30Z</time>
      </trkpt>
      <trkpt lat="44.42085" lon="4.24119">
        <ele>168</ele>
        <time>2019-02-22T15:08:34Z</time>
      </trkpt>
      <trkpt lat="44.42075" lon="4.2412">
        <ele>166</ele>
        <time>2019-02-22T15:08:51Z</time>
      </trkpt>
      <trkpt lat="44.42073" lon="4.24119">
        <ele>166</ele>
        <time>2019-02-22T15:08:54Z</time>
      </trkpt>
      <trkpt lat="44.42069" lon="4.24118">
        <ele>166</ele>
        <time>2019-02-22T15:08:58Z</time>
      </trkpt>
      <trkpt lat="44.42067" lon="4.24117">
        <ele>166</ele>
        <time>2019-02-22T15:09:02Z</time>
      </trkpt>
      <trkpt lat="44.42065" lon="4.24114">
        <ele>166</ele>
        <time>2019-02-22T15:09:08Z</time>
      </trkpt>
      <trkpt lat="44.42064" lon="4.2411">
        <ele>166</ele>
        <time>2019-02-22T15:09:11Z</time>
      </trkpt>
      <trkpt lat="44.42063" lon="4.24107">
        <ele>166</ele>
        <time>2019-02-22T15:09:14Z</time>
      </trkpt>
      <trkpt lat="44.42061" lon="4.24104">
        <ele>166</ele>
        <time>2019-02-22T15:09:18Z</time>
      </trkpt>
      <trkpt lat="44.42052" lon="4.24097">
        <ele>165</ele>
        <time>2019-02-22T15:09:29Z</time>
      </trkpt>
      <trkpt lat="44.4205" lon="4.24095">
        <ele>164</ele>
        <time>2019-02-22T15:09:33Z</time>
      </trkpt>
      <trkpt lat="44.4205" lon="4.24091">
        <ele>164</ele>
        <time>2019-02-22T15:09:39Z</time>
      </trkpt>
      <trkpt lat="44.42051" lon="4.24087">
        <ele>164</ele>
        <time>2019-02-22T15:09:42Z</time>
      </trkpt>
      <trkpt lat="44.42053" lon="4.24084">
        <ele>164</ele>
        <time>2019-02-22T15:09:45Z</time>
      </trkpt>
      <trkpt lat="44.42059" lon="4.24077">
        <ele>163</ele>
        <time>2019-02-22T15:09:54Z</time>
      </trkpt>
      <trkpt lat="44.42062" lon="4.24072">
        <ele>165</ele>
        <time>2019-02-22T15:10:03Z</time>
      </trkpt>
      <trkpt lat="44.42065" lon="4.24067">
        <ele>166</ele>
        <time>2019-02-22T15:10:11Z</time>
      </trkpt>
      <trkpt lat="44.42067" lon="4.24064">
        <ele>167</ele>
        <time>2019-02-22T15:10:14Z</time>
      </trkpt>
      <trkpt lat="44.42069" lon="4.24059">
        <ele>168</ele>
        <time>2019-02-22T15:10:18Z</time>
      </trkpt>
      <trkpt lat="44.42071" lon="4.24056">
        <ele>167</ele>
        <time>2019-02-22T15:10:21Z</time>
      </trkpt>
      <trkpt lat="44.42071" lon="4.24052">
        <ele>167</ele>
        <time>2019-02-22T15:10:24Z</time>
      </trkpt>
      <trkpt lat="44.42071" lon="4.24048">
        <ele>168</ele>
        <time>2019-02-22T15:10:29Z</time>
      </trkpt>
      <trkpt lat="44.42072" lon="4.24038">
        <ele>168</ele>
        <time>2019-02-22T15:10:38Z</time>
      </trkpt>
      <trkpt lat="44.42071" lon="4.24034">
        <ele>168</ele>
        <time>2019-02-22T15:10:43Z</time>
      </trkpt>
      <trkpt lat="44.42069" lon="4.24031">
        <ele>169</ele>
        <time>2019-02-22T15:10:46Z</time>
      </trkpt>
      <trkpt lat="44.42066" lon="4.2403">
        <ele>169</ele>
        <time>2019-02-22T15:10:49Z</time>
      </trkpt>
      <trkpt lat="44.42065" lon="4.24024">
        <ele>170</ele>
        <time>2019-02-22T15:10:54Z</time>
      </trkpt>
      <trkpt lat="44.42065" lon="4.24021">
        <ele>169</ele>
        <time>2019-02-22T15:10:56Z</time>
      </trkpt>
      <trkpt lat="44.42066" lon="4.24016">
        <ele>169</ele>
        <time>2019-02-22T15:10:59Z</time>
      </trkpt>
      <trkpt lat="44.42065" lon="4.24007">
        <ele>170</ele>
        <time>2019-02-22T15:11:05Z</time>
      </trkpt>
      <trkpt lat="44.42063" lon="4.24003">
        <ele>170</ele>
        <time>2019-02-22T15:11:08Z</time>
      </trkpt>
      <trkpt lat="44.42062" lon="4.23999">
        <ele>170</ele>
        <time>2019-02-22T15:11:12Z</time>
      </trkpt>
      <trkpt lat="44.42062" lon="4.23996">
        <ele>171</ele>
        <time>2019-02-22T15:11:16Z</time>
      </trkpt>
      <trkpt lat="44.42061" lon="4.23988">
        <ele>172</ele>
        <time>2019-02-22T15:11:24Z</time>
      </trkpt>
      <trkpt lat="44.42061" lon="4.23983">
        <ele>172</ele>
        <time>2019-02-22T15:11:28Z</time>
      </trkpt>
      <trkpt lat="44.42061" lon="4.23979">
        <ele>173</ele>
        <time>2019-02-22T15:11:33Z</time>
      </trkpt>
      <trkpt lat="44.42061" lon="4.23974">
        <ele>173</ele>
        <time>2019-02-22T15:11:38Z</time>
      </trkpt>
      <trkpt lat="44.42062" lon="4.23965">
        <ele>174</ele>
        <time>2019-02-22T15:11:44Z</time>
      </trkpt>
      <trkpt lat="44.42062" lon="4.2396">
        <ele>174</ele>
        <time>2019-02-22T15:11:47Z</time>
      </trkpt>
      <trkpt lat="44.42063" lon="4.23956">
        <ele>174</ele>
        <time>2019-02-22T15:11:50Z</time>
      </trkpt>
      <trkpt lat="44.42064" lon="4.23912">
        <ele>174</ele>
        <time>2019-02-22T15:12:20Z</time>
      </trkpt>
      <trkpt lat="44.42064" lon="4.23907">
        <ele>174</ele>
        <time>2019-02-22T15:12:23Z</time>
      </trkpt>
      <trkpt lat="44.42063" lon="4.23902">
        <ele>175</ele>
        <time>2019-02-22T15:12:28Z</time>
      </trkpt>
      <trkpt lat="44.42062" lon="4.23894">
        <ele>175</ele>
        <time>2019-02-22T15:12:34Z</time>
      </trkpt>
      <trkpt lat="44.42062" lon="4.2389">
        <ele>175</ele>
        <time>2019-02-22T15:12:37Z</time>
      </trkpt>
      <trkpt lat="44.42063" lon="4.23886">
        <ele>175</ele>
        <time>2019-02-22T15:12:41Z</time>
      </trkpt>
      <trkpt lat="44.42064" lon="4.23877">
        <ele>175</ele>
        <time>2019-02-22T15:12:47Z</time>
      </trkpt>
      <trkpt lat="44.42064" lon="4.23873">
        <ele>175</ele>
        <time>2019-02-22T15:12:51Z</time>
      </trkpt>
      <trkpt lat="44.42064" lon="4.2386">
        <ele>176</ele>
        <time>2019-02-22T15:13:01Z</time>
      </trkpt>
      <trkpt lat="44.42064" lon="4.23856">
        <ele>176</ele>
        <time>2019-02-22T15:13:04Z</time>
      </trkpt>
      <trkpt lat="44.42064" lon="4.23852">
        <ele>176</ele>
        <time>2019-02-22T15:13:07Z</time>
      </trkpt>
      <trkpt lat="44.42062" lon="4.2384">
        <ele>177</ele>
        <time>2019-02-22T15:13:17Z</time>
      </trkpt>
      <trkpt lat="44.42065" lon="4.23815">
        <ele>179</ele>
        <time>2019-02-22T15:13:53Z</time>
      </trkpt>
      <trkpt lat="44.42065" lon="4.2381">
        <ele>179</ele>
        <time>2019-02-22T15:13:56Z</time>
      </trkpt>
      <trkpt lat="44.42067" lon="4.23803">
        <ele>180</ele>
        <time>2019-02-22T15:14:04Z</time>
      </trkpt>
      <trkpt lat="44.42069" lon="4.23795">
        <ele>180</ele>
        <time>2019-02-22T15:14:14Z</time>
      </trkpt>
      <trkpt lat="44.42069" lon="4.23791">
        <ele>180</ele>
        <time>2019-02-22T15:14:18Z</time>
      </trkpt>
      <trkpt lat="44.4207" lon="4.23786">
        <ele>180</ele>
        <time>2019-02-22T15:14:23Z</time>
      </trkpt>
      <trkpt lat="44.42069" lon="4.23782">
        <ele>180</ele>
        <time>2019-02-22T15:14:27Z</time>
      </trkpt>
      <trkpt lat="44.42069" lon="4.23777">
        <ele>180</ele>
        <time>2019-02-22T15:14:31Z</time>
      </trkpt>
      <trkpt lat="44.42068" lon="4.23773">
        <ele>180</ele>
        <time>2019-02-22T15:14:35Z</time>
      </trkpt>
      <trkpt lat="44.42068" lon="4.23769">
        <ele>179</ele>
        <time>2019-02-22T15:14:43Z</time>
      </trkpt>
      <trkpt lat="44.42067" lon="4.23765">
        <ele>179</ele>
        <time>2019-02-22T15:14:47Z</time>
      </trkpt>
      <trkpt lat="44.4207" lon="4.23756">
        <ele>179</ele>
        <time>2019-02-22T15:14:54Z</time>
      </trkpt>
      <trkpt lat="44.42071" lon="4.23753">
        <ele>178</ele>
        <time>2019-02-22T15:14:57Z</time>
      </trkpt>
      <trkpt lat="44.42073" lon="4.2375">
        <ele>178</ele>
        <time>2019-02-22T15:15:01Z</time>
      </trkpt>
      <trkpt lat="44.42073" lon="4.23747">
        <ele>178</ele>
        <time>2019-02-22T15:15:07Z</time>
      </trkpt>
      <trkpt lat="44.42076" lon="4.23744">
        <ele>178</ele>
        <time>2019-02-22T15:15:13Z</time>
      </trkpt>
      <trkpt lat="44.42078" lon="4.2374">
        <ele>177</ele>
        <time>2019-02-22T15:15:17Z</time>
      </trkpt>
      <trkpt lat="44.42079" lon="4.23735">
        <ele>177</ele>
        <time>2019-02-22T15:15:21Z</time>
      </trkpt>
      <trkpt lat="44.42081" lon="4.23732">
        <ele>177</ele>
        <time>2019-02-22T15:15:25Z</time>
      </trkpt>
      <trkpt lat="44.42083" lon="4.23729">
        <ele>177</ele>
        <time>2019-02-22T15:15:28Z</time>
      </trkpt>
      <trkpt lat="44.42085" lon="4.23726">
        <ele>177</ele>
        <time>2019-02-22T15:15:31Z</time>
      </trkpt>
      <trkpt lat="44.42086" lon="4.23721">
        <ele>177</ele>
        <time>2019-02-22T15:15:34Z</time>
      </trkpt>
      <trkpt lat="44.42087" lon="4.23717">
        <ele>178</ele>
        <time>2019-02-22T15:15:37Z</time>
      </trkpt>
      <trkpt lat="44.42088" lon="4.23713">
        <ele>177</ele>
        <time>2019-02-22T15:15:40Z</time>
      </trkpt>
      <trkpt lat="44.42084" lon="4.23697">
        <ele>176</ele>
        <time>2019-02-22T15:15:55Z</time>
      </trkpt>
      <trkpt lat="44.42081" lon="4.23695">
        <ele>176</ele>
        <time>2019-02-22T15:15:59Z</time>
      </trkpt>
      <trkpt lat="44.42076" lon="4.23685">
        <ele>177</ele>
        <time>2019-02-22T15:16:14Z</time>
      </trkpt>
      <trkpt lat="44.42077" lon="4.23681">
        <ele>178</ele>
        <time>2019-02-22T15:16:26Z</time>
      </trkpt>
      <trkpt lat="44.42075" lon="4.23678">
        <ele>178</ele>
        <time>2019-02-22T15:16:33Z</time>
      </trkpt>
      <trkpt lat="44.42073" lon="4.23675">
        <ele>178</ele>
        <time>2019-02-22T15:16:37Z</time>
      </trkpt>
      <trkpt lat="44.4207" lon="4.23675">
        <ele>178</ele>
        <time>2019-02-22T15:17:05Z</time>
      </trkpt>
      <trkpt lat="44.42067" lon="4.23675">
        <ele>177</ele>
        <time>2019-02-22T15:17:09Z</time>
      </trkpt>
      <trkpt lat="44.42062" lon="4.2367">
        <ele>176</ele>
        <time>2019-02-22T15:17:16Z</time>
      </trkpt>
      <trkpt lat="44.42062" lon="4.23666">
        <ele>177</ele>
        <time>2019-02-22T15:17:21Z</time>
      </trkpt>
      <trkpt lat="44.42063" lon="4.23661">
        <ele>178</ele>
        <time>2019-02-22T15:17:26Z</time>
      </trkpt>
      <trkpt lat="44.4206" lon="4.23658">
        <ele>179</ele>
        <time>2019-02-22T15:17:31Z</time>
      </trkpt>
      <trkpt lat="44.42058" lon="4.23655">
        <ele>179</ele>
        <time>2019-02-22T15:17:35Z</time>
      </trkpt>
      <trkpt lat="44.42057" lon="4.23652">
        <ele>179</ele>
        <time>2019-02-22T15:17:40Z</time>
      </trkpt>
      <trkpt lat="44.42056" lon="4.23648">
        <ele>179</ele>
        <time>2019-02-22T15:17:45Z</time>
      </trkpt>
      <trkpt lat="44.42057" lon="4.23644">
        <ele>180</ele>
        <time>2019-02-22T15:17:51Z</time>
      </trkpt>
      <trkpt lat="44.42055" lon="4.23641">
        <ele>181</ele>
        <time>2019-02-22T15:17:56Z</time>
      </trkpt>
      <trkpt lat="44.42054" lon="4.23638">
        <ele>182</ele>
        <time>2019-02-22T15:18:03Z</time>
      </trkpt>
      <trkpt lat="44.42053" lon="4.23634">
        <ele>182</ele>
        <time>2019-02-22T15:18:11Z</time>
      </trkpt>
      <trkpt lat="44.42053" lon="4.2363">
        <ele>183</ele>
        <time>2019-02-22T15:18:21Z</time>
      </trkpt>
      <trkpt lat="44.42052" lon="4.23622">
        <ele>184</ele>
        <time>2019-02-22T15:18:58Z</time>
      </trkpt>
      <trkpt lat="44.42053" lon="4.23619">
        <ele>185</ele>
        <time>2019-02-22T15:19:07Z</time>
      </trkpt>
      <trkpt lat="44.42054" lon="4.23615">
        <ele>186</ele>
        <time>2019-02-22T15:19:39Z</time>
      </trkpt>
      <trkpt lat="44.42055" lon="4.23611">
        <ele>186</ele>
        <time>2019-02-22T15:19:43Z</time>
      </trkpt>
      <trkpt lat="44.42054" lon="4.23608">
        <ele>186</ele>
        <time>2019-02-22T15:19:47Z</time>
      </trkpt>
      <trkpt lat="44.42054" lon="4.23604">
        <ele>186</ele>
        <time>2019-02-22T15:19:51Z</time>
      </trkpt>
      <trkpt lat="44.42055" lon="4.236">
        <ele>186</ele>
        <time>2019-02-22T15:19:57Z</time>
      </trkpt>
      <trkpt lat="44.42054" lon="4.23596">
        <ele>186</ele>
        <time>2019-02-22T15:20:03Z</time>
      </trkpt>
      <trkpt lat="44.42053" lon="4.23588">
        <ele>187</ele>
        <time>2019-02-22T15:20:12Z</time>
      </trkpt>
      <trkpt lat="44.42054" lon="4.23584">
        <ele>187</ele>
        <time>2019-02-22T15:20:16Z</time>
      </trkpt>
      <trkpt lat="44.42055" lon="4.2358">
        <ele>187</ele>
        <time>2019-02-22T15:20:20Z</time>
      </trkpt>
      <trkpt lat="44.42055" lon="4.23576">
        <ele>187</ele>
        <time>2019-02-22T15:20:25Z</time>
      </trkpt>
      <trkpt lat="44.42054" lon="4.23572">
        <ele>187</ele>
        <time>2019-02-22T15:20:30Z</time>
      </trkpt>
      <trkpt lat="44.4205" lon="4.23566">
        <ele>189</ele>
        <time>2019-02-22T15:20:39Z</time>
      </trkpt>
      <trkpt lat="44.42049" lon="4.23562">
        <ele>189</ele>
        <time>2019-02-22T15:20:43Z</time>
      </trkpt>
      <trkpt lat="44.42041" lon="4.2355">
        <ele>189</ele>
        <time>2019-02-22T15:20:57Z</time>
      </trkpt>
      <trkpt lat="44.42039" lon="4.23547">
        <ele>189</ele>
        <time>2019-02-22T15:21:01Z</time>
      </trkpt>
      <trkpt lat="44.42041" lon="4.23543">
        <ele>190</ele>
        <time>2019-02-22T15:21:05Z</time>
      </trkpt>
      <trkpt lat="44.42041" lon="4.23538">
        <ele>190</ele>
        <time>2019-02-22T15:21:10Z</time>
      </trkpt>
      <trkpt lat="44.42041" lon="4.23534">
        <ele>190</ele>
        <time>2019-02-22T15:21:14Z</time>
      </trkpt>
      <trkpt lat="44.42044" lon="4.23532">
        <ele>191</ele>
        <time>2019-02-22T15:21:31Z</time>
      </trkpt>
      <trkpt lat="44.42046" lon="4.23529">
        <ele>191</ele>
        <time>2019-02-22T15:21:35Z</time>
      </trkpt>
      <trkpt lat="44.42048" lon="4.23517">
        <ele>192</ele>
        <time>2019-02-22T15:21:47Z</time>
      </trkpt>
      <trkpt lat="44.42047" lon="4.23513">
        <ele>193</ele>
        <time>2019-02-22T15:21:52Z</time>
      </trkpt>
      <trkpt lat="44.42047" lon="4.23509">
        <ele>194</ele>
        <time>2019-02-22T15:21:56Z</time>
      </trkpt>
      <trkpt lat="44.42046" lon="4.23505">
        <ele>194</ele>
        <time>2019-02-22T15:22:00Z</time>
      </trkpt>
      <trkpt lat="44.42047" lon="4.23501">
        <ele>194</ele>
        <time>2019-02-22T15:22:03Z</time>
      </trkpt>
      <trkpt lat="44.42045" lon="4.23497">
        <ele>194</ele>
        <time>2019-02-22T15:22:07Z</time>
      </trkpt>
      <trkpt lat="44.42045" lon="4.23488">
        <ele>194</ele>
        <time>2019-02-22T15:22:15Z</time>
      </trkpt>
      <trkpt lat="44.42046" lon="4.23483">
        <ele>195</ele>
        <time>2019-02-22T15:22:21Z</time>
      </trkpt>
      <trkpt lat="44.42047" lon="4.23479">
        <ele>195</ele>
        <time>2019-02-22T15:22:25Z</time>
      </trkpt>
      <trkpt lat="44.42045" lon="4.23475">
        <ele>196</ele>
        <time>2019-02-22T15:22:30Z</time>
      </trkpt>
      <trkpt lat="44.42046" lon="4.2347">
        <ele>196</ele>
        <time>2019-02-22T15:22:34Z</time>
      </trkpt>
      <trkpt lat="44.42047" lon="4.23452">
        <ele>196</ele>
        <time>2019-02-22T15:22:47Z</time>
      </trkpt>
      <trkpt lat="44.42047" lon="4.23448">
        <ele>196</ele>
        <time>2019-02-22T15:22:51Z</time>
      </trkpt>
      <trkpt lat="44.42048" lon="4.2344">
        <ele>196</ele>
        <time>2019-02-22T15:22:58Z</time>
      </trkpt>
      <trkpt lat="44.42048" lon="4.23431">
        <ele>196</ele>
        <time>2019-02-22T15:23:06Z</time>
      </trkpt>
      <trkpt lat="44.42047" lon="4.23427">
        <ele>196</ele>
        <time>2019-02-22T15:23:11Z</time>
      </trkpt>
      <trkpt lat="44.42048" lon="4.23409">
        <ele>196</ele>
        <time>2019-02-22T15:23:26Z</time>
      </trkpt>
      <trkpt lat="44.42049" lon="4.23405">
        <ele>196</ele>
        <time>2019-02-22T15:23:29Z</time>
      </trkpt>
      <trkpt lat="44.42051" lon="4.23402">
        <ele>196</ele>
        <time>2019-02-22T15:23:32Z</time>
      </trkpt>
      <trkpt lat="44.42052" lon="4.23398">
        <ele>195</ele>
        <time>2019-02-22T15:23:36Z</time>
      </trkpt>
      <trkpt lat="44.42051" lon="4.23395">
        <ele>195</ele>
        <time>2019-02-22T15:23:40Z</time>
      </trkpt>
      <trkpt lat="44.4205" lon="4.23391">
        <ele>195</ele>
        <time>2019-02-22T15:23:44Z</time>
      </trkpt>
      <trkpt lat="44.4205" lon="4.23382">
        <ele>194</ele>
        <time>2019-02-22T15:23:55Z</time>
      </trkpt>
      <trkpt lat="44.42049" lon="4.23378">
        <ele>194</ele>
        <time>2019-02-22T15:23:59Z</time>
      </trkpt>
      <trkpt lat="44.42047" lon="4.23375">
        <ele>193</ele>
        <time>2019-02-22T15:24:03Z</time>
      </trkpt>
      <trkpt lat="44.42046" lon="4.2337">
        <ele>193</ele>
        <time>2019-02-22T15:24:07Z</time>
      </trkpt>
      <trkpt lat="44.42043" lon="4.23359">
        <ele>192</ele>
        <time>2019-02-22T15:24:19Z</time>
      </trkpt>
      <trkpt lat="44.42041" lon="4.23356">
        <ele>192</ele>
        <time>2019-02-22T15:24:23Z</time>
      </trkpt>
      <trkpt lat="44.42039" lon="4.23353">
        <ele>192</ele>
        <time>2019-02-22T15:24:28Z</time>
      </trkpt>
      <trkpt lat="44.42039" lon="4.23349">
        <ele>192</ele>
        <time>2019-02-22T15:24:36Z</time>
      </trkpt>
      <trkpt lat="44.42038" lon="4.23344">
        <ele>192</ele>
        <time>2019-02-22T15:24:40Z</time>
      </trkpt>
      <trkpt lat="44.42037" lon="4.23341">
        <ele>192</ele>
        <time>2019-02-22T15:24:45Z</time>
      </trkpt>
      <trkpt lat="44.42033" lon="4.23335">
        <ele>191</ele>
        <time>2019-02-22T15:24:59Z</time>
      </trkpt>
      <trkpt lat="44.42035" lon="4.23331">
        <ele>191</ele>
        <time>2019-02-22T15:25:05Z</time>
      </trkpt>
      <trkpt lat="44.42035" lon="4.23327">
        <ele>192</ele>
        <time>2019-02-22T15:25:28Z</time>
      </trkpt>
      <trkpt lat="44.42023" lon="4.23314">
        <ele>193</ele>
        <time>2019-02-22T15:25:48Z</time>
      </trkpt>
      <trkpt lat="44.42022" lon="4.2331">
        <ele>192</ele>
        <time>2019-02-22T15:25:53Z</time>
      </trkpt>
      <trkpt lat="44.42021" lon="4.23306">
        <ele>193</ele>
        <time>2019-02-22T15:25:57Z</time>
      </trkpt>
      <trkpt lat="44.42021" lon="4.23302">
        <ele>192</ele>
        <time>2019-02-22T15:26:01Z</time>
      </trkpt>
      <trkpt lat="44.4202" lon="4.23298">
        <ele>191</ele>
        <time>2019-02-22T15:26:05Z</time>
      </trkpt>
      <trkpt lat="44.42018" lon="4.23295">
        <ele>191</ele>
        <time>2019-02-22T15:26:08Z</time>
      </trkpt>
      <trkpt lat="44.42008" lon="4.23273">
        <ele>191</ele>
        <time>2019-02-22T15:26:33Z</time>
      </trkpt>
      <trkpt lat="44.42006" lon="4.2327">
        <ele>192</ele>
        <time>2019-02-22T15:26:37Z</time>
      </trkpt>
      <trkpt lat="44.41994" lon="4.23241">
        <ele>191</ele>
        <time>2019-02-22T15:27:10Z</time>
      </trkpt>
      <trkpt lat="44.41993" lon="4.23238">
        <ele>191</ele>
        <time>2019-02-22T15:27:14Z</time>
      </trkpt>
      <trkpt lat="44.41992" lon="4.23234">
        <ele>191</ele>
        <time>2019-02-22T15:27:17Z</time>
      </trkpt>
      <trkpt lat="44.41991" lon="4.23229">
        <ele>190</ele>
        <time>2019-02-22T15:27:20Z</time>
      </trkpt>
      <trkpt lat="44.41995" lon="4.23217">
        <ele>190</ele>
        <time>2019-02-22T15:27:31Z</time>
      </trkpt>
      <trkpt lat="44.4201" lon="4.23207">
        <ele>192</ele>
        <time>2019-02-22T15:27:53Z</time>
      </trkpt>
      <trkpt lat="44.42013" lon="4.23207">
        <ele>192</ele>
        <time>2019-02-22T15:27:57Z</time>
      </trkpt>
      <trkpt lat="44.42016" lon="4.23206">
        <ele>192</ele>
        <time>2019-02-22T15:28:00Z</time>
      </trkpt>
      <trkpt lat="44.42019" lon="4.23204">
        <ele>192</ele>
        <time>2019-02-22T15:28:03Z</time>
      </trkpt>
      <trkpt lat="44.42022" lon="4.23202">
        <ele>193</ele>
        <time>2019-02-22T15:28:07Z</time>
      </trkpt>
      <trkpt lat="44.42025" lon="4.23202">
        <ele>193</ele>
        <time>2019-02-22T15:28:12Z</time>
      </trkpt>
      <trkpt lat="44.42027" lon="4.23199">
        <ele>193</ele>
        <time>2019-02-22T15:28:17Z</time>
      </trkpt>
      <trkpt lat="44.4203" lon="4.23197">
        <ele>193</ele>
        <time>2019-02-22T15:28:22Z</time>
      </trkpt>
      <trkpt lat="44.42032" lon="4.23195">
        <ele>193</ele>
        <time>2019-02-22T15:28:26Z</time>
      </trkpt>
      <trkpt lat="44.42034" lon="4.23192">
        <ele>193</ele>
        <time>2019-02-22T15:28:30Z</time>
      </trkpt>
      <trkpt lat="44.4204" lon="4.23186">
        <ele>193</ele>
        <time>2019-02-22T15:28:38Z</time>
      </trkpt>
      <trkpt lat="44.42048" lon="4.23183">
        <ele>193</ele>
        <time>2019-02-22T15:28:47Z</time>
      </trkpt>
      <trkpt lat="44.42052" lon="4.2318">
        <ele>194</ele>
        <time>2019-02-22T15:28:51Z</time>
      </trkpt>
      <trkpt lat="44.42055" lon="4.23178">
        <ele>194</ele>
        <time>2019-02-22T15:28:54Z</time>
      </trkpt>
      <trkpt lat="44.42058" lon="4.23177">
        <ele>194</ele>
        <time>2019-02-22T15:28:57Z</time>
      </trkpt>
      <trkpt lat="44.42061" lon="4.23177">
        <ele>194</ele>
        <time>2019-02-22T15:29:00Z</time>
      </trkpt>
      <trkpt lat="44.42064" lon="4.23175">
        <ele>194</ele>
        <time>2019-02-22T15:29:03Z</time>
      </trkpt>
      <trkpt lat="44.42078" lon="4.23157">
        <ele>197</ele>
        <time>2019-02-22T15:29:26Z</time>
      </trkpt>
      <trkpt lat="44.42083" lon="4.23152">
        <ele>198</ele>
        <time>2019-02-22T15:29:34Z</time>
      </trkpt>
      <trkpt lat="44.42087" lon="4.23145">
        <ele>199</ele>
        <time>2019-02-22T15:29:42Z</time>
      </trkpt>
      <trkpt lat="44.42092" lon="4.2314">
        <ele>200</ele>
        <time>2019-02-22T15:29:50Z</time>
      </trkpt>
      <trkpt lat="44.42111" lon="4.23134">
        <ele>201</ele>
        <time>2019-02-22T15:30:17Z</time>
      </trkpt>
      <trkpt lat="44.42115" lon="4.23132">
        <ele>201</ele>
        <time>2019-02-22T15:30:20Z</time>
      </trkpt>
      <trkpt lat="44.42125" lon="4.23131">
        <ele>201</ele>
        <time>2019-02-22T15:30:28Z</time>
      </trkpt>
      <trkpt lat="44.42128" lon="4.23131">
        <ele>202</ele>
        <time>2019-02-22T15:30:33Z</time>
      </trkpt>
      <trkpt lat="44.42131" lon="4.23128">
        <ele>203</ele>
        <time>2019-02-22T15:30:37Z</time>
      </trkpt>
      <trkpt lat="44.42136" lon="4.23126">
        <ele>204</ele>
        <time>2019-02-22T15:30:45Z</time>
      </trkpt>
      <trkpt lat="44.4214" lon="4.23124">
        <ele>205</ele>
        <time>2019-02-22T15:30:49Z</time>
      </trkpt>
      <trkpt lat="44.42142" lon="4.23122">
        <ele>205</ele>
        <time>2019-02-22T15:30:52Z</time>
      </trkpt>
      <trkpt lat="44.42145" lon="4.23121">
        <ele>206</ele>
        <time>2019-02-22T15:30:56Z</time>
      </trkpt>
    </trkseg>
  </trk>
</gpx>